<?xml version="1.0" encoding="UTF-8" standalone="no" ?>
<gpx xmlns="http://www.topografix.com/GPX/1/1" xmlns:xsi="http://www.w3.org/2001/XMLSchema-instance" xsi:schemaLocation="http://www.topografix.com/GPX/1/1 http://www.topografix.com/GPX/1/1/gpx.xsd" version="1.1" creator="VisuGPX - https://www.visugpx.com">
  <metadata>
    <name>2012-10-11 Roc Challenge</name>
    <desc><![CDATA[52 Km et 1600 mètres
attention ce parcours peut emprunter des chemins privés]]></desc>
  </metadata>
  <trk>
    <name><![CDATA[Roc Challenge]]></name>
    <trkseg>
      <trkpt lat="43.44494" lon="6.63638">
        <ele>25.2000008</ele>
        <time>2012-10-11T10:05:09Z</time>
      </trkpt>
      <trkpt lat="43.44446" lon="6.6365">
        <ele>25</ele>
        <time>2012-10-11T10:05:46Z</time>
      </trkpt>
      <trkpt lat="43.44363" lon="6.63578">
        <ele>28.7999992</ele>
        <time>2012-10-11T10:06:18Z</time>
      </trkpt>
      <trkpt lat="43.44294" lon="6.63556">
        <ele>32</ele>
        <time>2012-10-11T10:06:40Z</time>
      </trkpt>
      <trkpt lat="43.44223" lon="6.634">
        <ele>41.4000015</ele>
        <time>2012-10-11T10:07:29Z</time>
      </trkpt>
      <trkpt lat="43.44199" lon="6.63374">
        <ele>43.7999992</ele>
        <time>2012-10-11T10:07:41Z</time>
      </trkpt>
      <trkpt lat="43.4416" lon="6.63369">
        <ele>46</ele>
        <time>2012-10-11T10:07:56Z</time>
      </trkpt>
      <trkpt lat="43.44111" lon="6.63401">
        <ele>50.2000008</ele>
        <time>2012-10-11T10:08:17Z</time>
      </trkpt>
      <trkpt lat="43.44085" lon="6.63425">
        <ele>52.2000008</ele>
        <time>2012-10-11T10:08:28Z</time>
      </trkpt>
      <trkpt lat="43.44048" lon="6.63442">
        <ele>54.2000008</ele>
        <time>2012-10-11T10:08:42Z</time>
      </trkpt>
      <trkpt lat="43.44005" lon="6.63422">
        <ele>54.5999985</ele>
        <time>2012-10-11T10:08:58Z</time>
      </trkpt>
      <trkpt lat="43.43987" lon="6.63322">
        <ele>59</ele>
        <time>2012-10-11T10:09:27Z</time>
      </trkpt>
      <trkpt lat="43.4393" lon="6.63236">
        <ele>67.4000015</ele>
        <time>2012-10-11T10:10:08Z</time>
      </trkpt>
      <trkpt lat="43.43921" lon="6.63196">
        <ele>71.5999985</ele>
        <time>2012-10-11T10:10:23Z</time>
      </trkpt>
      <trkpt lat="43.43892" lon="6.63136">
        <ele>74.4000015</ele>
        <time>2012-10-11T10:10:52Z</time>
      </trkpt>
      <trkpt lat="43.43951" lon="6.63115">
        <ele>79.8000031</ele>
        <time>2012-10-11T10:11:25Z</time>
      </trkpt>
      <trkpt lat="43.43821" lon="6.63045">
        <ele>93.4000015</ele>
        <time>2012-10-11T10:12:34Z</time>
      </trkpt>
      <trkpt lat="43.4383" lon="6.63173">
        <ele>98.5999985</ele>
        <time>2012-10-11T10:13:12Z</time>
      </trkpt>
      <trkpt lat="43.43827" lon="6.63213">
        <ele>100.1999969</ele>
        <time>2012-10-11T10:13:25Z</time>
      </trkpt>
      <trkpt lat="43.43805" lon="6.63151">
        <ele>107</ele>
        <time>2012-10-11T10:13:53Z</time>
      </trkpt>
      <trkpt lat="43.43775" lon="6.631">
        <ele>111.1999969</ele>
        <time>2012-10-11T10:14:19Z</time>
      </trkpt>
      <trkpt lat="43.43753" lon="6.63016">
        <ele>115.8000031</ele>
        <time>2012-10-11T10:14:55Z</time>
      </trkpt>
      <trkpt lat="43.43741" lon="6.63007">
        <ele>117.4000015</ele>
        <time>2012-10-11T10:15:03Z</time>
      </trkpt>
      <trkpt lat="43.43807" lon="6.62942">
        <ele>123.5999985</ele>
        <time>2012-10-11T10:17:23Z</time>
      </trkpt>
      <trkpt lat="43.43827" lon="6.62857">
        <ele>129.8000031</ele>
        <time>2012-10-11T10:17:54Z</time>
      </trkpt>
      <trkpt lat="43.43856" lon="6.62739">
        <ele>129.3999939</ele>
        <time>2012-10-11T10:18:19Z</time>
      </trkpt>
      <trkpt lat="43.43881" lon="6.62637">
        <ele>115.8000031</ele>
        <time>2012-10-11T10:18:46Z</time>
      </trkpt>
      <trkpt lat="43.43942" lon="6.62525">
        <ele>100.8000031</ele>
        <time>2012-10-11T10:19:21Z</time>
      </trkpt>
      <trkpt lat="43.43961" lon="6.62587">
        <ele>97.8000031</ele>
        <time>2012-10-11T10:19:32Z</time>
      </trkpt>
      <trkpt lat="43.43959" lon="6.62686">
        <ele>91.5999985</ele>
        <time>2012-10-11T10:19:48Z</time>
      </trkpt>
      <trkpt lat="43.43996" lon="6.62747">
        <ele>88.8000031</ele>
        <time>2012-10-11T10:20:01Z</time>
      </trkpt>
      <trkpt lat="43.44061" lon="6.62791">
        <ele>80.4000015</ele>
        <time>2012-10-11T10:20:23Z</time>
      </trkpt>
      <trkpt lat="43.44075" lon="6.62787">
        <ele>78</ele>
        <time>2012-10-11T10:20:28Z</time>
      </trkpt>
      <trkpt lat="43.44021" lon="6.62669">
        <ele>72</ele>
        <time>2012-10-11T10:20:48Z</time>
      </trkpt>
      <trkpt lat="43.44047" lon="6.62535">
        <ele>65.5999985</ele>
        <time>2012-10-11T10:21:02Z</time>
      </trkpt>
      <trkpt lat="43.44077" lon="6.62386">
        <ele>52.2000008</ele>
        <time>2012-10-11T10:21:16Z</time>
      </trkpt>
      <trkpt lat="43.4407" lon="6.6236">
        <ele>49.5999985</ele>
        <time>2012-10-11T10:21:20Z</time>
      </trkpt>
      <trkpt lat="43.43976" lon="6.62319">
        <ele>43.5999985</ele>
        <time>2012-10-11T10:21:34Z</time>
      </trkpt>
      <trkpt lat="43.43917" lon="6.62315">
        <ele>39</ele>
        <time>2012-10-11T10:21:43Z</time>
      </trkpt>
      <trkpt lat="43.43766" lon="6.62283">
        <ele>24.2000008</ele>
        <time>2012-10-11T10:22:06Z</time>
      </trkpt>
      <trkpt lat="43.43647" lon="6.62226">
        <ele>30.2000008</ele>
        <time>2012-10-11T10:22:55Z</time>
      </trkpt>
      <trkpt lat="43.43561" lon="6.62263">
        <ele>35.4000015</ele>
        <time>2012-10-11T10:23:24Z</time>
      </trkpt>
      <trkpt lat="43.43524" lon="6.62297">
        <ele>36.5999985</ele>
        <time>2012-10-11T10:23:38Z</time>
      </trkpt>
      <trkpt lat="43.43441" lon="6.62332">
        <ele>39.5999985</ele>
        <time>2012-10-11T10:24:03Z</time>
      </trkpt>
      <trkpt lat="43.4341" lon="6.6237">
        <ele>40.7999992</ele>
        <time>2012-10-11T10:24:13Z</time>
      </trkpt>
      <trkpt lat="43.434" lon="6.62314">
        <ele>40.7999992</ele>
        <time>2012-10-11T10:24:24Z</time>
      </trkpt>
      <trkpt lat="43.43349" lon="6.62287">
        <ele>40.7999992</ele>
        <time>2012-10-11T10:24:35Z</time>
      </trkpt>
      <trkpt lat="43.43306" lon="6.62291">
        <ele>38.5999985</ele>
        <time>2012-10-11T10:24:46Z</time>
      </trkpt>
      <trkpt lat="43.43298" lon="6.62253">
        <ele>38.5999985</ele>
        <time>2012-10-11T10:24:54Z</time>
      </trkpt>
      <trkpt lat="43.43265" lon="6.62231">
        <ele>38.5999985</ele>
        <time>2012-10-11T10:25:02Z</time>
      </trkpt>
      <trkpt lat="43.43289" lon="6.62099">
        <ele>38.5999985</ele>
        <time>2012-10-11T10:25:37Z</time>
      </trkpt>
      <trkpt lat="43.4336" lon="6.62034">
        <ele>43.2000008</ele>
        <time>2012-10-11T10:26:01Z</time>
      </trkpt>
      <trkpt lat="43.43398" lon="6.6198">
        <ele>43.2000008</ele>
        <time>2012-10-11T10:26:15Z</time>
      </trkpt>
      <trkpt lat="43.43404" lon="6.61919">
        <ele>43.2000008</ele>
        <time>2012-10-11T10:26:25Z</time>
      </trkpt>
      <trkpt lat="43.43369" lon="6.61777">
        <ele>43.2000008</ele>
        <time>2012-10-11T10:26:49Z</time>
      </trkpt>
      <trkpt lat="43.4338" lon="6.61753">
        <ele>43.2000008</ele>
        <time>2012-10-11T10:27:10Z</time>
      </trkpt>
      <trkpt lat="43.43363" lon="6.61714">
        <ele>43.2000008</ele>
        <time>2012-10-11T10:27:29Z</time>
      </trkpt>
      <trkpt lat="43.43347" lon="6.61453">
        <ele>49.4000015</ele>
        <time>2012-10-11T10:28:49Z</time>
      </trkpt>
      <trkpt lat="43.43354" lon="6.61401">
        <ele>49.4000015</ele>
        <time>2012-10-11T10:29:00Z</time>
      </trkpt>
      <trkpt lat="43.43326" lon="6.61233">
        <ele>54</ele>
        <time>2012-10-11T10:29:42Z</time>
      </trkpt>
      <trkpt lat="43.4333" lon="6.61175">
        <ele>54</ele>
        <time>2012-10-11T10:29:55Z</time>
      </trkpt>
      <trkpt lat="43.43262" lon="6.61108">
        <ele>56</ele>
        <time>2012-10-11T10:30:32Z</time>
      </trkpt>
      <trkpt lat="43.4326" lon="6.61074">
        <ele>60.2000008</ele>
        <time>2012-10-11T10:31:08Z</time>
      </trkpt>
      <trkpt lat="43.43235" lon="6.60928">
        <ele>60.4000015</ele>
        <time>2012-10-11T10:32:17Z</time>
      </trkpt>
      <trkpt lat="43.4322" lon="6.60887">
        <ele>60.4000015</ele>
        <time>2012-10-11T10:32:29Z</time>
      </trkpt>
      <trkpt lat="43.43132" lon="6.60753">
        <ele>61.5999985</ele>
        <time>2012-10-11T10:33:09Z</time>
      </trkpt>
      <trkpt lat="43.43041" lon="6.60718">
        <ele>64.5999985</ele>
        <time>2012-10-11T10:33:35Z</time>
      </trkpt>
      <trkpt lat="43.4303" lon="6.60708">
        <ele>64.5999985</ele>
        <time>2012-10-11T10:33:39Z</time>
      </trkpt>
      <trkpt lat="43.43008" lon="6.60636">
        <ele>65.4000015</ele>
        <time>2012-10-11T10:34:03Z</time>
      </trkpt>
      <trkpt lat="43.42985" lon="6.60611">
        <ele>68.4000015</ele>
        <time>2012-10-11T10:34:16Z</time>
      </trkpt>
      <trkpt lat="43.42987" lon="6.60574">
        <ele>71</ele>
        <time>2012-10-11T10:34:27Z</time>
      </trkpt>
      <trkpt lat="43.42972" lon="6.60516">
        <ele>71</ele>
        <time>2012-10-11T10:34:39Z</time>
      </trkpt>
      <trkpt lat="43.42914" lon="6.60453">
        <ele>73</ele>
        <time>2012-10-11T10:35:03Z</time>
      </trkpt>
      <trkpt lat="43.42887" lon="6.6037">
        <ele>75</ele>
        <time>2012-10-11T10:35:25Z</time>
      </trkpt>
      <trkpt lat="43.42822" lon="6.60289">
        <ele>79</ele>
        <time>2012-10-11T10:36:26Z</time>
      </trkpt>
      <trkpt lat="43.42829" lon="6.60225">
        <ele>81</ele>
        <time>2012-10-11T10:37:15Z</time>
      </trkpt>
      <trkpt lat="43.42875" lon="6.60091">
        <ele>106</ele>
        <time>2012-10-11T10:39:36Z</time>
      </trkpt>
      <trkpt lat="43.4288" lon="6.60067">
        <ele>106</ele>
        <time>2012-10-11T10:39:42Z</time>
      </trkpt>
      <trkpt lat="43.42837" lon="6.6001">
        <ele>110.4000015</ele>
        <time>2012-10-11T10:40:19Z</time>
      </trkpt>
      <trkpt lat="43.4278" lon="6.59992">
        <ele>118.5999985</ele>
        <time>2012-10-11T10:40:56Z</time>
      </trkpt>
      <trkpt lat="43.42767" lon="6.59932">
        <ele>123</ele>
        <time>2012-10-11T10:41:24Z</time>
      </trkpt>
      <trkpt lat="43.42777" lon="6.59839">
        <ele>126.1999969</ele>
        <time>2012-10-11T10:42:00Z</time>
      </trkpt>
      <trkpt lat="43.42745" lon="6.598">
        <ele>131.1999969</ele>
        <time>2012-10-11T10:42:27Z</time>
      </trkpt>
      <trkpt lat="43.42739" lon="6.59759">
        <ele>135.1999969</ele>
        <time>2012-10-11T10:42:48Z</time>
      </trkpt>
      <trkpt lat="43.42734" lon="6.59745">
        <ele>135.1999969</ele>
        <time>2012-10-11T10:42:54Z</time>
      </trkpt>
      <trkpt lat="43.42636" lon="6.59714">
        <ele>150.6000061</ele>
        <time>2012-10-11T10:44:25Z</time>
      </trkpt>
      <trkpt lat="43.42603" lon="6.59666">
        <ele>158.1999969</ele>
        <time>2012-10-11T10:45:06Z</time>
      </trkpt>
      <trkpt lat="43.4258" lon="6.59644">
        <ele>160.1999969</ele>
        <time>2012-10-11T10:45:23Z</time>
      </trkpt>
      <trkpt lat="43.42545" lon="6.59643">
        <ele>162.1999969</ele>
        <time>2012-10-11T10:45:42Z</time>
      </trkpt>
      <trkpt lat="43.42518" lon="6.59606">
        <ele>162.1999969</ele>
        <time>2012-10-11T10:45:54Z</time>
      </trkpt>
      <trkpt lat="43.4248" lon="6.59621">
        <ele>166.6000061</ele>
        <time>2012-10-11T10:46:17Z</time>
      </trkpt>
      <trkpt lat="43.42464" lon="6.59609">
        <ele>168.8000031</ele>
        <time>2012-10-11T10:46:28Z</time>
      </trkpt>
      <trkpt lat="43.42432" lon="6.59511">
        <ele>170.8000031</ele>
        <time>2012-10-11T10:47:01Z</time>
      </trkpt>
      <trkpt lat="43.42372" lon="6.59529">
        <ele>170.8000031</ele>
        <time>2012-10-11T10:47:18Z</time>
      </trkpt>
      <trkpt lat="43.42344" lon="6.59502">
        <ele>170.8000031</ele>
        <time>2012-10-11T10:47:26Z</time>
      </trkpt>
      <trkpt lat="43.42336" lon="6.59465">
        <ele>170.8000031</ele>
        <time>2012-10-11T10:47:34Z</time>
      </trkpt>
      <trkpt lat="43.4231" lon="6.59482">
        <ele>170.8000031</ele>
        <time>2012-10-11T10:47:42Z</time>
      </trkpt>
      <trkpt lat="43.4227" lon="6.59473">
        <ele>170.8000031</ele>
        <time>2012-10-11T10:47:52Z</time>
      </trkpt>
      <trkpt lat="43.42253" lon="6.59486">
        <ele>168.8000031</ele>
        <time>2012-10-11T10:47:58Z</time>
      </trkpt>
      <trkpt lat="43.4224" lon="6.59509">
        <ele>169.6000061</ele>
        <time>2012-10-11T10:48:23Z</time>
      </trkpt>
      <trkpt lat="43.42241" lon="6.59567">
        <ele>181.1999969</ele>
        <time>2012-10-11T10:49:25Z</time>
      </trkpt>
      <trkpt lat="43.4223" lon="6.59576">
        <ele>183.1999969</ele>
        <time>2012-10-11T10:49:32Z</time>
      </trkpt>
      <trkpt lat="43.42218" lon="6.59625">
        <ele>187.6000061</ele>
        <time>2012-10-11T10:49:58Z</time>
      </trkpt>
      <trkpt lat="43.4219" lon="6.59663">
        <ele>194.1999969</ele>
        <time>2012-10-11T10:50:27Z</time>
      </trkpt>
      <trkpt lat="43.4214" lon="6.59701">
        <ele>194.1999969</ele>
        <time>2012-10-11T10:50:43Z</time>
      </trkpt>
      <trkpt lat="43.42089" lon="6.59826">
        <ele>198.3999939</ele>
        <time>2012-10-11T10:51:26Z</time>
      </trkpt>
      <trkpt lat="43.42066" lon="6.59863">
        <ele>198.3999939</ele>
        <time>2012-10-11T10:51:39Z</time>
      </trkpt>
      <trkpt lat="43.42086" lon="6.59883">
        <ele>198.3999939</ele>
        <time>2012-10-11T10:51:48Z</time>
      </trkpt>
      <trkpt lat="43.42141" lon="6.59833">
        <ele>198.8000031</ele>
        <time>2012-10-11T10:52:11Z</time>
      </trkpt>
      <trkpt lat="43.42189" lon="6.59831">
        <ele>203</ele>
        <time>2012-10-11T10:52:33Z</time>
      </trkpt>
      <trkpt lat="43.42242" lon="6.59904">
        <ele>211.3999939</ele>
        <time>2012-10-11T10:53:20Z</time>
      </trkpt>
      <trkpt lat="43.42241" lon="6.59977">
        <ele>219.3999939</ele>
        <time>2012-10-11T10:53:57Z</time>
      </trkpt>
      <trkpt lat="43.42175" lon="6.60049">
        <ele>219.3999939</ele>
        <time>2012-10-11T10:54:26Z</time>
      </trkpt>
      <trkpt lat="43.42125" lon="6.60137">
        <ele>223.6000061</ele>
        <time>2012-10-11T10:54:52Z</time>
      </trkpt>
      <trkpt lat="43.42114" lon="6.60172">
        <ele>223.6000061</ele>
        <time>2012-10-11T10:55:01Z</time>
      </trkpt>
      <trkpt lat="43.42179" lon="6.60315">
        <ele>222.1999969</ele>
        <time>2012-10-11T10:55:30Z</time>
      </trkpt>
      <trkpt lat="43.42177" lon="6.60386">
        <ele>218.6000061</ele>
        <time>2012-10-11T10:55:38Z</time>
      </trkpt>
      <trkpt lat="43.42201" lon="6.60409">
        <ele>218.1999969</ele>
        <time>2012-10-11T10:55:43Z</time>
      </trkpt>
      <trkpt lat="43.42266" lon="6.60425">
        <ele>213</ele>
        <time>2012-10-11T10:55:51Z</time>
      </trkpt>
      <trkpt lat="43.4228" lon="6.60417">
        <ele>211.6000061</ele>
        <time>2012-10-11T10:55:53Z</time>
      </trkpt>
      <trkpt lat="43.42302" lon="6.60413">
        <ele>207.3999939</ele>
        <time>2012-10-11T10:55:59Z</time>
      </trkpt>
      <trkpt lat="43.42292" lon="6.60437">
        <ele>205.1999969</ele>
        <time>2012-10-11T10:56:05Z</time>
      </trkpt>
      <trkpt lat="43.4227" lon="6.60451">
        <ele>204.8000031</ele>
        <time>2012-10-11T10:56:09Z</time>
      </trkpt>
      <trkpt lat="43.42251" lon="6.60463">
        <ele>202.8000031</ele>
        <time>2012-10-11T10:56:12Z</time>
      </trkpt>
      <trkpt lat="43.4224" lon="6.60524">
        <ele>200.3999939</ele>
        <time>2012-10-11T10:56:19Z</time>
      </trkpt>
      <trkpt lat="43.42252" lon="6.60565">
        <ele>197.8000031</ele>
        <time>2012-10-11T10:56:25Z</time>
      </trkpt>
      <trkpt lat="43.42191" lon="6.60628">
        <ele>192.1999969</ele>
        <time>2012-10-11T10:56:36Z</time>
      </trkpt>
      <trkpt lat="43.42171" lon="6.60711">
        <ele>188.1999969</ele>
        <time>2012-10-11T10:56:44Z</time>
      </trkpt>
      <trkpt lat="43.4219" lon="6.60792">
        <ele>189.1999969</ele>
        <time>2012-10-11T10:57:05Z</time>
      </trkpt>
      <trkpt lat="43.42248" lon="6.60768">
        <ele>197.8000031</ele>
        <time>2012-10-11T10:57:44Z</time>
      </trkpt>
      <trkpt lat="43.42322" lon="6.60846">
        <ele>210.3999939</ele>
        <time>2012-10-11T10:58:48Z</time>
      </trkpt>
      <trkpt lat="43.42355" lon="6.6085">
        <ele>213.1999969</ele>
        <time>2012-10-11T10:59:11Z</time>
      </trkpt>
      <trkpt lat="43.42357" lon="6.60891">
        <ele>218.6000061</ele>
        <time>2012-10-11T10:59:34Z</time>
      </trkpt>
      <trkpt lat="43.42318" lon="6.60954">
        <ele>229.1999969</ele>
        <time>2012-10-11T11:00:25Z</time>
      </trkpt>
      <trkpt lat="43.42302" lon="6.60993">
        <ele>233.3999939</ele>
        <time>2012-10-11T11:00:47Z</time>
      </trkpt>
      <trkpt lat="43.42291" lon="6.6104">
        <ele>235.6000061</ele>
        <time>2012-10-11T11:01:09Z</time>
      </trkpt>
      <trkpt lat="43.42322" lon="6.60976">
        <ele>235.1999969</ele>
        <time>2012-10-11T11:01:24Z</time>
      </trkpt>
      <trkpt lat="43.42345" lon="6.6096">
        <ele>233</ele>
        <time>2012-10-11T11:01:29Z</time>
      </trkpt>
      <trkpt lat="43.42378" lon="6.60929">
        <ele>226.1999969</ele>
        <time>2012-10-11T11:01:37Z</time>
      </trkpt>
      <trkpt lat="43.42401" lon="6.60882">
        <ele>216.3999939</ele>
        <time>2012-10-11T11:01:49Z</time>
      </trkpt>
      <trkpt lat="43.4242" lon="6.60885">
        <ele>209.3999939</ele>
        <time>2012-10-11T11:01:58Z</time>
      </trkpt>
      <trkpt lat="43.42434" lon="6.60876">
        <ele>199.6000061</ele>
        <time>2012-10-11T11:02:22Z</time>
      </trkpt>
      <trkpt lat="43.42444" lon="6.60887">
        <ele>195.1999969</ele>
        <time>2012-10-11T11:02:35Z</time>
      </trkpt>
      <trkpt lat="43.42481" lon="6.6085">
        <ele>187.1999969</ele>
        <time>2012-10-11T11:02:52Z</time>
      </trkpt>
      <trkpt lat="43.42487" lon="6.60825">
        <ele>184.1999969</ele>
        <time>2012-10-11T11:03:01Z</time>
      </trkpt>
      <trkpt lat="43.42499" lon="6.6083">
        <ele>181.8000031</ele>
        <time>2012-10-11T11:03:06Z</time>
      </trkpt>
      <trkpt lat="43.42539" lon="6.60795">
        <ele>164.3999939</ele>
        <time>2012-10-11T11:03:28Z</time>
      </trkpt>
      <trkpt lat="43.42551" lon="6.60775">
        <ele>155.8000031</ele>
        <time>2012-10-11T11:04:16Z</time>
      </trkpt>
      <trkpt lat="43.42554" lon="6.60791">
        <ele>155.8000031</ele>
        <time>2012-10-11T11:04:23Z</time>
      </trkpt>
      <trkpt lat="43.4256" lon="6.60791">
        <ele>153.6000061</ele>
        <time>2012-10-11T11:04:27Z</time>
      </trkpt>
      <trkpt lat="43.42567" lon="6.60746">
        <ele>148.6000061</ele>
        <time>2012-10-11T11:04:43Z</time>
      </trkpt>
      <trkpt lat="43.42602" lon="6.60865">
        <ele>137</ele>
        <time>2012-10-11T11:05:08Z</time>
      </trkpt>
      <trkpt lat="43.42618" lon="6.60753">
        <ele>129.6000061</ele>
        <time>2012-10-11T11:05:28Z</time>
      </trkpt>
      <trkpt lat="43.42676" lon="6.60708">
        <ele>120</ele>
        <time>2012-10-11T11:05:42Z</time>
      </trkpt>
      <trkpt lat="43.42657" lon="6.60788">
        <ele>115</ele>
        <time>2012-10-11T11:05:58Z</time>
      </trkpt>
      <trkpt lat="43.42684" lon="6.60841">
        <ele>111.5999985</ele>
        <time>2012-10-11T11:06:10Z</time>
      </trkpt>
      <trkpt lat="43.42689" lon="6.6086">
        <ele>109.1999969</ele>
        <time>2012-10-11T11:06:15Z</time>
      </trkpt>
      <trkpt lat="43.42735" lon="6.60811">
        <ele>102.1999969</ele>
        <time>2012-10-11T11:06:28Z</time>
      </trkpt>
      <trkpt lat="43.42729" lon="6.60775">
        <ele>98</ele>
        <time>2012-10-11T11:06:39Z</time>
      </trkpt>
      <trkpt lat="43.42761" lon="6.60753">
        <ele>96.4000015</ele>
        <time>2012-10-11T11:06:52Z</time>
      </trkpt>
      <trkpt lat="43.42797" lon="6.60699">
        <ele>88</ele>
        <time>2012-10-11T11:07:08Z</time>
      </trkpt>
      <trkpt lat="43.42898" lon="6.6068">
        <ele>77.8000031</ele>
        <time>2012-10-11T11:07:34Z</time>
      </trkpt>
      <trkpt lat="43.42939" lon="6.60679">
        <ele>72.5999985</ele>
        <time>2012-10-11T11:07:48Z</time>
      </trkpt>
      <trkpt lat="43.42967" lon="6.60713">
        <ele>70</ele>
        <time>2012-10-11T11:07:58Z</time>
      </trkpt>
      <trkpt lat="43.42979" lon="6.60738">
        <ele>70</ele>
        <time>2012-10-11T11:08:05Z</time>
      </trkpt>
      <trkpt lat="43.42975" lon="6.60818">
        <ele>72</ele>
        <time>2012-10-11T11:08:25Z</time>
      </trkpt>
      <trkpt lat="43.43001" lon="6.60904">
        <ele>80.4000015</ele>
        <time>2012-10-11T11:09:01Z</time>
      </trkpt>
      <trkpt lat="43.43073" lon="6.61051">
        <ele>86.8000031</ele>
        <time>2012-10-11T11:11:49Z</time>
      </trkpt>
      <trkpt lat="43.43066" lon="6.61121">
        <ele>86.8000031</ele>
        <time>2012-10-11T11:12:04Z</time>
      </trkpt>
      <trkpt lat="43.43108" lon="6.61156">
        <ele>88.8000031</ele>
        <time>2012-10-11T11:12:19Z</time>
      </trkpt>
      <trkpt lat="43.43131" lon="6.61205">
        <ele>90</ele>
        <time>2012-10-11T11:12:35Z</time>
      </trkpt>
      <trkpt lat="43.43126" lon="6.61267">
        <ele>95.1999969</ele>
        <time>2012-10-11T11:12:53Z</time>
      </trkpt>
      <trkpt lat="43.43051" lon="6.61388">
        <ele>100</ele>
        <time>2012-10-11T11:13:45Z</time>
      </trkpt>
      <trkpt lat="43.43053" lon="6.61443">
        <ele>104.1999969</ele>
        <time>2012-10-11T11:14:04Z</time>
      </trkpt>
      <trkpt lat="43.43053" lon="6.61495">
        <ele>104.1999969</ele>
        <time>2012-10-11T11:14:14Z</time>
      </trkpt>
      <trkpt lat="43.43107" lon="6.61495">
        <ele>103.8000031</ele>
        <time>2012-10-11T11:14:28Z</time>
      </trkpt>
      <trkpt lat="43.43119" lon="6.61545">
        <ele>99.8000031</ele>
        <time>2012-10-11T11:14:38Z</time>
      </trkpt>
      <trkpt lat="43.43188" lon="6.61558">
        <ele>96.8000031</ele>
        <time>2012-10-11T11:14:50Z</time>
      </trkpt>
      <trkpt lat="43.43197" lon="6.61566">
        <ele>95.8000031</ele>
        <time>2012-10-11T11:14:52Z</time>
      </trkpt>
      <trkpt lat="43.43238" lon="6.61658">
        <ele>90.5999985</ele>
        <time>2012-10-11T11:15:03Z</time>
      </trkpt>
      <trkpt lat="43.43245" lon="6.61774">
        <ele>84</ele>
        <time>2012-10-11T11:15:13Z</time>
      </trkpt>
      <trkpt lat="43.43261" lon="6.61817">
        <ele>80.5999985</ele>
        <time>2012-10-11T11:15:18Z</time>
      </trkpt>
      <trkpt lat="43.43241" lon="6.61889">
        <ele>76.8000031</ele>
        <time>2012-10-11T11:15:27Z</time>
      </trkpt>
      <trkpt lat="43.43299" lon="6.61965">
        <ele>70</ele>
        <time>2012-10-11T11:15:38Z</time>
      </trkpt>
      <trkpt lat="43.43254" lon="6.62079">
        <ele>64.4000015</ele>
        <time>2012-10-11T11:15:51Z</time>
      </trkpt>
      <trkpt lat="43.43228" lon="6.62188">
        <ele>57.7999992</ele>
        <time>2012-10-11T11:16:02Z</time>
      </trkpt>
      <trkpt lat="43.43125" lon="6.62202">
        <ele>50.7999992</ele>
        <time>2012-10-11T11:16:20Z</time>
      </trkpt>
      <trkpt lat="43.43097" lon="6.62235">
        <ele>51.5999985</ele>
        <time>2012-10-11T11:16:43Z</time>
      </trkpt>
      <trkpt lat="43.43063" lon="6.62244">
        <ele>56.7999992</ele>
        <time>2012-10-11T11:17:05Z</time>
      </trkpt>
      <trkpt lat="43.42988" lon="6.62248">
        <ele>68.5999985</ele>
        <time>2012-10-11T11:18:01Z</time>
      </trkpt>
      <trkpt lat="43.42982" lon="6.62248">
        <ele>68.5999985</ele>
        <time>2012-10-11T11:18:04Z</time>
      </trkpt>
      <trkpt lat="43.42927" lon="6.62228">
        <ele>75</ele>
        <time>2012-10-11T11:18:43Z</time>
      </trkpt>
      <trkpt lat="43.42839" lon="6.62159">
        <ele>90</ele>
        <time>2012-10-11T11:19:52Z</time>
      </trkpt>
      <trkpt lat="43.42832" lon="6.62155">
        <ele>90.8000031</ele>
        <time>2012-10-11T11:19:58Z</time>
      </trkpt>
      <trkpt lat="43.42749" lon="6.62132">
        <ele>103.5999985</ele>
        <time>2012-10-11T11:21:04Z</time>
      </trkpt>
      <trkpt lat="43.42703" lon="6.62139">
        <ele>113.5999985</ele>
        <time>2012-10-11T11:21:49Z</time>
      </trkpt>
      <trkpt lat="43.42686" lon="6.6214">
        <ele>115.5999985</ele>
        <time>2012-10-11T11:22:11Z</time>
      </trkpt>
      <trkpt lat="43.42671" lon="6.62114">
        <ele>121.8000031</ele>
        <time>2012-10-11T11:22:42Z</time>
      </trkpt>
      <trkpt lat="43.42627" lon="6.6211">
        <ele>128</ele>
        <time>2012-10-11T11:23:25Z</time>
      </trkpt>
      <trkpt lat="43.42505" lon="6.62101">
        <ele>128</ele>
        <time>2012-10-11T11:24:07Z</time>
      </trkpt>
      <trkpt lat="43.42463" lon="6.62066">
        <ele>128</ele>
        <time>2012-10-11T11:24:18Z</time>
      </trkpt>
      <trkpt lat="43.42441" lon="6.62028">
        <ele>128</ele>
        <time>2012-10-11T11:24:29Z</time>
      </trkpt>
      <trkpt lat="43.42396" lon="6.61999">
        <ele>128</ele>
        <time>2012-10-11T11:24:48Z</time>
      </trkpt>
      <trkpt lat="43.42331" lon="6.62037">
        <ele>132</ele>
        <time>2012-10-11T11:25:14Z</time>
      </trkpt>
      <trkpt lat="43.42273" lon="6.62048">
        <ele>132</ele>
        <time>2012-10-11T11:25:34Z</time>
      </trkpt>
      <trkpt lat="43.42165" lon="6.62011">
        <ele>142.6000061</ele>
        <time>2012-10-11T11:26:38Z</time>
      </trkpt>
      <trkpt lat="43.42001" lon="6.61985">
        <ele>146.6000061</ele>
        <time>2012-10-11T11:27:34Z</time>
      </trkpt>
      <trkpt lat="43.41891" lon="6.6206">
        <ele>152.8000031</ele>
        <time>2012-10-11T11:28:28Z</time>
      </trkpt>
      <trkpt lat="43.41818" lon="6.62079">
        <ele>154.8000031</ele>
        <time>2012-10-11T11:28:57Z</time>
      </trkpt>
      <trkpt lat="43.41524" lon="6.6203">
        <ele>178.1999969</ele>
        <time>2012-10-11T11:31:47Z</time>
      </trkpt>
      <trkpt lat="43.41487" lon="6.61978">
        <ele>188.6000061</ele>
        <time>2012-10-11T11:32:26Z</time>
      </trkpt>
      <trkpt lat="43.41447" lon="6.61913">
        <ele>195</ele>
        <time>2012-10-11T11:33:13Z</time>
      </trkpt>
      <trkpt lat="43.41433" lon="6.61822">
        <ele>198.1999969</ele>
        <time>2012-10-11T11:33:55Z</time>
      </trkpt>
      <trkpt lat="43.41397" lon="6.61783">
        <ele>203.1999969</ele>
        <time>2012-10-11T11:34:26Z</time>
      </trkpt>
      <trkpt lat="43.41356" lon="6.61734">
        <ele>205.3999939</ele>
        <time>2012-10-11T11:34:59Z</time>
      </trkpt>
      <trkpt lat="43.41348" lon="6.61705">
        <ele>206.6000061</ele>
        <time>2012-10-11T11:35:13Z</time>
      </trkpt>
      <trkpt lat="43.41419" lon="6.61604">
        <ele>217.8000031</ele>
        <time>2012-10-11T11:36:17Z</time>
      </trkpt>
      <trkpt lat="43.41484" lon="6.61568">
        <ele>223.3999939</ele>
        <time>2012-10-11T11:37:00Z</time>
      </trkpt>
      <trkpt lat="43.41645" lon="6.616">
        <ele>253.3999939</ele>
        <time>2012-10-11T11:40:21Z</time>
      </trkpt>
      <trkpt lat="43.4167" lon="6.61606">
        <ele>257.3999939</ele>
        <time>2012-10-11T11:40:48Z</time>
      </trkpt>
      <trkpt lat="43.417" lon="6.61571">
        <ele>263.2000122</ele>
        <time>2012-10-11T11:41:34Z</time>
      </trkpt>
      <trkpt lat="43.4171" lon="6.61524">
        <ele>270</ele>
        <time>2012-10-11T11:42:18Z</time>
      </trkpt>
      <trkpt lat="43.41761" lon="6.61516">
        <ele>269.6000061</ele>
        <time>2012-10-11T11:43:52Z</time>
      </trkpt>
      <trkpt lat="43.41828" lon="6.6146">
        <ele>263</ele>
        <time>2012-10-11T11:44:02Z</time>
      </trkpt>
      <trkpt lat="43.41918" lon="6.6145">
        <ele>263</ele>
        <time>2012-10-11T11:44:17Z</time>
      </trkpt>
      <trkpt lat="43.42095" lon="6.6149">
        <ele>273.6000061</ele>
        <time>2012-10-11T11:45:42Z</time>
      </trkpt>
      <trkpt lat="43.42126" lon="6.61515">
        <ele>275.6000061</ele>
        <time>2012-10-11T11:46:01Z</time>
      </trkpt>
      <trkpt lat="43.42148" lon="6.61555">
        <ele>276</ele>
        <time>2012-10-11T11:46:17Z</time>
      </trkpt>
      <trkpt lat="43.42206" lon="6.61499">
        <ele>284</ele>
        <time>2012-10-11T11:47:03Z</time>
      </trkpt>
      <trkpt lat="43.42161" lon="6.61497">
        <ele>281.3999939</ele>
        <time>2012-10-11T11:47:19Z</time>
      </trkpt>
      <trkpt lat="43.42102" lon="6.61443">
        <ele>272</ele>
        <time>2012-10-11T11:47:37Z</time>
      </trkpt>
      <trkpt lat="43.42082" lon="6.61384">
        <ele>267</ele>
        <time>2012-10-11T11:47:48Z</time>
      </trkpt>
      <trkpt lat="43.42103" lon="6.61315">
        <ele>259.7999878</ele>
        <time>2012-10-11T11:48:32Z</time>
      </trkpt>
      <trkpt lat="43.42066" lon="6.61281">
        <ele>244</ele>
        <time>2012-10-11T11:49:25Z</time>
      </trkpt>
      <trkpt lat="43.42057" lon="6.61242">
        <ele>236.6000061</ele>
        <time>2012-10-11T11:49:47Z</time>
      </trkpt>
      <trkpt lat="43.42023" lon="6.61211">
        <ele>228.8000031</ele>
        <time>2012-10-11T11:50:17Z</time>
      </trkpt>
      <trkpt lat="43.4202" lon="6.61208">
        <ele>227</ele>
        <time>2012-10-11T11:50:19Z</time>
      </trkpt>
      <trkpt lat="43.41985" lon="6.61109">
        <ele>214.3999939</ele>
        <time>2012-10-11T11:51:01Z</time>
      </trkpt>
      <trkpt lat="43.41837" lon="6.61219">
        <ele>223.3999939</ele>
        <time>2012-10-11T11:53:17Z</time>
      </trkpt>
      <trkpt lat="43.41745" lon="6.61252">
        <ele>231.6000061</ele>
        <time>2012-10-11T11:54:26Z</time>
      </trkpt>
      <trkpt lat="43.41721" lon="6.61253">
        <ele>231.6000061</ele>
        <time>2012-10-11T11:54:41Z</time>
      </trkpt>
      <trkpt lat="43.41733" lon="6.6113">
        <ele>237.1999969</ele>
        <time>2012-10-11T11:55:35Z</time>
      </trkpt>
      <trkpt lat="43.41684" lon="6.61121">
        <ele>242.6000061</ele>
        <time>2012-10-11T11:56:11Z</time>
      </trkpt>
      <trkpt lat="43.4167" lon="6.6109">
        <ele>246.3999939</ele>
        <time>2012-10-11T11:56:31Z</time>
      </trkpt>
      <trkpt lat="43.41599" lon="6.61008">
        <ele>255</ele>
        <time>2012-10-11T11:57:45Z</time>
      </trkpt>
      <trkpt lat="43.41584" lon="6.61044">
        <ele>259.2000122</ele>
        <time>2012-10-11T11:58:11Z</time>
      </trkpt>
      <trkpt lat="43.4157" lon="6.6105">
        <ele>261.2000122</ele>
        <time>2012-10-11T11:58:21Z</time>
      </trkpt>
      <trkpt lat="43.41416" lon="6.61017">
        <ele>271.6000061</ele>
        <time>2012-10-11T11:59:57Z</time>
      </trkpt>
      <trkpt lat="43.41361" lon="6.60998">
        <ele>272</ele>
        <time>2012-10-11T12:00:20Z</time>
      </trkpt>
      <trkpt lat="43.41309" lon="6.60955">
        <ele>275</ele>
        <time>2012-10-11T12:00:44Z</time>
      </trkpt>
      <trkpt lat="43.41263" lon="6.60884">
        <ele>279.7999878</ele>
        <time>2012-10-11T12:01:17Z</time>
      </trkpt>
      <trkpt lat="43.41226" lon="6.60877">
        <ele>283.2000122</ele>
        <time>2012-10-11T12:01:39Z</time>
      </trkpt>
      <trkpt lat="43.41174" lon="6.60835">
        <ele>290.3999939</ele>
        <time>2012-10-11T12:02:19Z</time>
      </trkpt>
      <trkpt lat="43.41161" lon="6.60823">
        <ele>290.7999878</ele>
        <time>2012-10-11T12:02:30Z</time>
      </trkpt>
      <trkpt lat="43.41155" lon="6.60836">
        <ele>292.3999939</ele>
        <time>2012-10-11T12:02:38Z</time>
      </trkpt>
      <trkpt lat="43.41183" lon="6.60906">
        <ele>297.2000122</ele>
        <time>2012-10-11T12:03:12Z</time>
      </trkpt>
      <trkpt lat="43.41268" lon="6.61089">
        <ele>305.6000061</ele>
        <time>2012-10-11T12:04:33Z</time>
      </trkpt>
      <trkpt lat="43.41136" lon="6.61068">
        <ele>313.7999878</ele>
        <time>2012-10-11T12:05:54Z</time>
      </trkpt>
      <trkpt lat="43.4108" lon="6.61019">
        <ele>318</ele>
        <time>2012-10-11T12:06:27Z</time>
      </trkpt>
      <trkpt lat="43.41039" lon="6.60849">
        <ele>322.2000122</ele>
        <time>2012-10-11T12:07:28Z</time>
      </trkpt>
      <trkpt lat="43.41027" lon="6.60824">
        <ele>322.2000122</ele>
        <time>2012-10-11T12:07:36Z</time>
      </trkpt>
      <trkpt lat="43.40955" lon="6.60772">
        <ele>326.3999939</ele>
        <time>2012-10-11T12:08:07Z</time>
      </trkpt>
      <trkpt lat="43.40934" lon="6.60765">
        <ele>326.3999939</ele>
        <time>2012-10-11T12:08:16Z</time>
      </trkpt>
      <trkpt lat="43.40861" lon="6.60799">
        <ele>326.3999939</ele>
        <time>2012-10-11T12:08:40Z</time>
      </trkpt>
      <trkpt lat="43.40765" lon="6.60714">
        <ele>326.3999939</ele>
        <time>2012-10-11T12:09:13Z</time>
      </trkpt>
      <trkpt lat="43.4068" lon="6.60686">
        <ele>328.3999939</ele>
        <time>2012-10-11T12:09:41Z</time>
      </trkpt>
      <trkpt lat="43.40638" lon="6.6066">
        <ele>328.7999878</ele>
        <time>2012-10-11T12:10:00Z</time>
      </trkpt>
      <trkpt lat="43.40642" lon="6.60691">
        <ele>330.6000061</ele>
        <time>2012-10-11T12:10:11Z</time>
      </trkpt>
      <trkpt lat="43.40729" lon="6.60773">
        <ele>330.6000061</ele>
        <time>2012-10-11T12:10:38Z</time>
      </trkpt>
      <trkpt lat="43.40749" lon="6.609">
        <ele>328.3999939</ele>
        <time>2012-10-11T12:11:03Z</time>
      </trkpt>
      <trkpt lat="43.40782" lon="6.60968">
        <ele>330.3999939</ele>
        <time>2012-10-11T12:11:21Z</time>
      </trkpt>
      <trkpt lat="43.40765" lon="6.60983">
        <ele>330.3999939</ele>
        <time>2012-10-11T12:11:27Z</time>
      </trkpt>
      <trkpt lat="43.40709" lon="6.60965">
        <ele>330.3999939</ele>
        <time>2012-10-11T12:11:43Z</time>
      </trkpt>
      <trkpt lat="43.40715" lon="6.61009">
        <ele>330.3999939</ele>
        <time>2012-10-11T12:11:54Z</time>
      </trkpt>
      <trkpt lat="43.40696" lon="6.61035">
        <ele>332.6000061</ele>
        <time>2012-10-11T12:12:02Z</time>
      </trkpt>
      <trkpt lat="43.40692" lon="6.61089">
        <ele>333</ele>
        <time>2012-10-11T12:12:16Z</time>
      </trkpt>
      <trkpt lat="43.4071" lon="6.61141">
        <ele>336.6000061</ele>
        <time>2012-10-11T12:12:33Z</time>
      </trkpt>
      <trkpt lat="43.40718" lon="6.61213">
        <ele>338.7999878</ele>
        <time>2012-10-11T12:12:54Z</time>
      </trkpt>
      <trkpt lat="43.40689" lon="6.61249">
        <ele>339.6000061</ele>
        <time>2012-10-11T12:13:09Z</time>
      </trkpt>
      <trkpt lat="43.40628" lon="6.61247">
        <ele>343</ele>
        <time>2012-10-11T12:13:32Z</time>
      </trkpt>
      <trkpt lat="43.40585" lon="6.61274">
        <ele>343</ele>
        <time>2012-10-11T12:13:48Z</time>
      </trkpt>
      <trkpt lat="43.40455" lon="6.6119">
        <ele>349.3999939</ele>
        <time>2012-10-11T12:14:45Z</time>
      </trkpt>
      <trkpt lat="43.40452" lon="6.61302">
        <ele>351.3999939</ele>
        <time>2012-10-11T12:15:12Z</time>
      </trkpt>
      <trkpt lat="43.40442" lon="6.61332">
        <ele>351.3999939</ele>
        <time>2012-10-11T12:15:21Z</time>
      </trkpt>
      <trkpt lat="43.40449" lon="6.61353">
        <ele>353.3999939</ele>
        <time>2012-10-11T12:15:28Z</time>
      </trkpt>
      <trkpt lat="43.40504" lon="6.61407">
        <ele>355.3999939</ele>
        <time>2012-10-11T12:15:51Z</time>
      </trkpt>
      <trkpt lat="43.40538" lon="6.6147">
        <ele>356</ele>
        <time>2012-10-11T12:16:12Z</time>
      </trkpt>
      <trkpt lat="43.40578" lon="6.61508">
        <ele>359.7999878</ele>
        <time>2012-10-11T12:16:30Z</time>
      </trkpt>
      <trkpt lat="43.40725" lon="6.61561">
        <ele>365.3999939</ele>
        <time>2012-10-11T12:17:26Z</time>
      </trkpt>
      <trkpt lat="43.40796" lon="6.61626">
        <ele>370.2000122</ele>
        <time>2012-10-11T12:18:01Z</time>
      </trkpt>
      <trkpt lat="43.40796" lon="6.61647">
        <ele>370.2000122</ele>
        <time>2012-10-11T12:18:07Z</time>
      </trkpt>
      <trkpt lat="43.40612" lon="6.61761">
        <ele>378.3999939</ele>
        <time>2012-10-11T12:19:41Z</time>
      </trkpt>
      <trkpt lat="43.40549" lon="6.61868">
        <ele>384.6000061</ele>
        <time>2012-10-11T12:20:19Z</time>
      </trkpt>
      <trkpt lat="43.40527" lon="6.61905">
        <ele>384.6000061</ele>
        <time>2012-10-11T12:20:32Z</time>
      </trkpt>
      <trkpt lat="43.40463" lon="6.61944">
        <ele>384.6000061</ele>
        <time>2012-10-11T12:20:56Z</time>
      </trkpt>
      <trkpt lat="43.40456" lon="6.62046">
        <ele>386.6000061</ele>
        <time>2012-10-11T12:21:22Z</time>
      </trkpt>
      <trkpt lat="43.40406" lon="6.62143">
        <ele>392.7999878</ele>
        <time>2012-10-11T12:21:58Z</time>
      </trkpt>
      <trkpt lat="43.40397" lon="6.62182">
        <ele>392.7999878</ele>
        <time>2012-10-11T12:22:11Z</time>
      </trkpt>
      <trkpt lat="43.40464" lon="6.62495">
        <ele>468.3999939</ele>
        <time>2012-10-11T12:39:25Z</time>
      </trkpt>
      <trkpt lat="43.40446" lon="6.62505">
        <ele>467.7999878</ele>
        <time>2012-10-11T12:39:32Z</time>
      </trkpt>
      <trkpt lat="43.40424" lon="6.62519">
        <ele>463.2000122</ele>
        <time>2012-10-11T12:39:39Z</time>
      </trkpt>
      <trkpt lat="43.404" lon="6.62531">
        <ele>456.3999939</ele>
        <time>2012-10-11T12:39:46Z</time>
      </trkpt>
      <trkpt lat="43.40338" lon="6.62582">
        <ele>440.2000122</ele>
        <time>2012-10-11T12:40:04Z</time>
      </trkpt>
      <trkpt lat="43.4032" lon="6.62586">
        <ele>437.7999878</ele>
        <time>2012-10-11T12:40:11Z</time>
      </trkpt>
      <trkpt lat="43.40309" lon="6.6261">
        <ele>437.7999878</ele>
        <time>2012-10-11T12:40:34Z</time>
      </trkpt>
      <trkpt lat="43.40237" lon="6.62621">
        <ele>433.6000061</ele>
        <time>2012-10-11T12:41:05Z</time>
      </trkpt>
      <trkpt lat="43.4015" lon="6.62675">
        <ele>425</ele>
        <time>2012-10-11T12:41:30Z</time>
      </trkpt>
      <trkpt lat="43.40065" lon="6.62809">
        <ele>423.2000122</ele>
        <time>2012-10-11T12:42:38Z</time>
      </trkpt>
      <trkpt lat="43.40032" lon="6.62914">
        <ele>425.2000122</ele>
        <time>2012-10-11T12:43:25Z</time>
      </trkpt>
      <trkpt lat="43.40013" lon="6.62979">
        <ele>425.2000122</ele>
        <time>2012-10-11T12:43:47Z</time>
      </trkpt>
      <trkpt lat="43.39997" lon="6.63032">
        <ele>418.3999939</ele>
        <time>2012-10-11T12:44:02Z</time>
      </trkpt>
      <trkpt lat="43.39912" lon="6.63142">
        <ele>418.2000122</ele>
        <time>2012-10-11T12:44:51Z</time>
      </trkpt>
      <trkpt lat="43.39902" lon="6.63178">
        <ele>415.6000061</ele>
        <time>2012-10-11T12:45:00Z</time>
      </trkpt>
      <trkpt lat="43.3989" lon="6.63206">
        <ele>411.3999939</ele>
        <time>2012-10-11T12:45:19Z</time>
      </trkpt>
      <trkpt lat="43.39864" lon="6.63189">
        <ele>398.3999939</ele>
        <time>2012-10-11T12:45:49Z</time>
      </trkpt>
      <trkpt lat="43.3985" lon="6.63239">
        <ele>391.6000061</ele>
        <time>2012-10-11T12:46:13Z</time>
      </trkpt>
      <trkpt lat="43.39836" lon="6.63249">
        <ele>391.2000122</ele>
        <time>2012-10-11T12:46:19Z</time>
      </trkpt>
      <trkpt lat="43.39809" lon="6.63251">
        <ele>379.6000061</ele>
        <time>2012-10-11T12:46:47Z</time>
      </trkpt>
      <trkpt lat="43.39787" lon="6.63307">
        <ele>372</ele>
        <time>2012-10-11T12:47:06Z</time>
      </trkpt>
      <trkpt lat="43.39758" lon="6.63342">
        <ele>366.6000061</ele>
        <time>2012-10-11T12:47:15Z</time>
      </trkpt>
      <trkpt lat="43.39745" lon="6.63368">
        <ele>362.7999878</ele>
        <time>2012-10-11T12:47:21Z</time>
      </trkpt>
      <trkpt lat="43.39631" lon="6.63483">
        <ele>344.7999878</ele>
        <time>2012-10-11T12:47:57Z</time>
      </trkpt>
      <trkpt lat="43.39628" lon="6.63486">
        <ele>344.2000122</ele>
        <time>2012-10-11T12:47:58Z</time>
      </trkpt>
      <trkpt lat="43.39456" lon="6.63547">
        <ele>312.2000122</ele>
        <time>2012-10-11T12:48:48Z</time>
      </trkpt>
      <trkpt lat="43.39427" lon="6.6358">
        <ele>300.7999878</ele>
        <time>2012-10-11T12:49:02Z</time>
      </trkpt>
      <trkpt lat="43.39393" lon="6.63671">
        <ele>288.2000122</ele>
        <time>2012-10-11T12:49:22Z</time>
      </trkpt>
      <trkpt lat="43.39359" lon="6.63698">
        <ele>281.3999939</ele>
        <time>2012-10-11T12:49:32Z</time>
      </trkpt>
      <trkpt lat="43.39349" lon="6.63713">
        <ele>278.2000122</ele>
        <time>2012-10-11T12:49:35Z</time>
      </trkpt>
      <trkpt lat="43.39324" lon="6.63758">
        <ele>267.6000061</ele>
        <time>2012-10-11T12:49:44Z</time>
      </trkpt>
      <trkpt lat="43.39297" lon="6.6378">
        <ele>259</ele>
        <time>2012-10-11T12:49:54Z</time>
      </trkpt>
      <trkpt lat="43.39289" lon="6.63793">
        <ele>253.3999939</ele>
        <time>2012-10-11T12:50:00Z</time>
      </trkpt>
      <trkpt lat="43.39281" lon="6.63794">
        <ele>248.3999939</ele>
        <time>2012-10-11T12:50:10Z</time>
      </trkpt>
      <trkpt lat="43.39249" lon="6.63984">
        <ele>220</ele>
        <time>2012-10-11T12:51:01Z</time>
      </trkpt>
      <trkpt lat="43.39372" lon="6.63934">
        <ele>207.6000061</ele>
        <time>2012-10-11T12:51:22Z</time>
      </trkpt>
      <trkpt lat="43.39464" lon="6.63942">
        <ele>200.1999969</ele>
        <time>2012-10-11T12:51:37Z</time>
      </trkpt>
      <trkpt lat="43.39507" lon="6.63964">
        <ele>198.1999969</ele>
        <time>2012-10-11T12:51:45Z</time>
      </trkpt>
      <trkpt lat="43.39558" lon="6.63926">
        <ele>197.8000031</ele>
        <time>2012-10-11T12:51:57Z</time>
      </trkpt>
      <trkpt lat="43.39563" lon="6.63925">
        <ele>197.3999939</ele>
        <time>2012-10-11T12:51:58Z</time>
      </trkpt>
      <trkpt lat="43.39591" lon="6.63937">
        <ele>196</ele>
        <time>2012-10-11T12:52:06Z</time>
      </trkpt>
      <trkpt lat="43.39618" lon="6.64011">
        <ele>196</ele>
        <time>2012-10-11T12:52:21Z</time>
      </trkpt>
      <trkpt lat="43.39638" lon="6.64023">
        <ele>196</ele>
        <time>2012-10-11T12:52:25Z</time>
      </trkpt>
      <trkpt lat="43.39798" lon="6.64073">
        <ele>190.8000031</ele>
        <time>2012-10-11T12:52:51Z</time>
      </trkpt>
      <trkpt lat="43.39862" lon="6.64063">
        <ele>190.3999939</ele>
        <time>2012-10-11T12:53:04Z</time>
      </trkpt>
      <trkpt lat="43.39883" lon="6.64046">
        <ele>188.6000061</ele>
        <time>2012-10-11T12:53:09Z</time>
      </trkpt>
      <trkpt lat="43.39957" lon="6.64119">
        <ele>189</ele>
        <time>2012-10-11T12:53:34Z</time>
      </trkpt>
      <trkpt lat="43.40036" lon="6.64159">
        <ele>196</ele>
        <time>2012-10-11T12:54:09Z</time>
      </trkpt>
      <trkpt lat="43.40055" lon="6.6421">
        <ele>198.8000031</ele>
        <time>2012-10-11T12:54:26Z</time>
      </trkpt>
      <trkpt lat="43.40066" lon="6.6422">
        <ele>198.8000031</ele>
        <time>2012-10-11T12:54:31Z</time>
      </trkpt>
      <trkpt lat="43.40255" lon="6.64276">
        <ele>213</ele>
        <time>2012-10-11T12:56:10Z</time>
      </trkpt>
      <trkpt lat="43.40357" lon="6.64352">
        <ele>235</ele>
        <time>2012-10-11T12:58:01Z</time>
      </trkpt>
      <trkpt lat="43.40402" lon="6.64403">
        <ele>241.8000031</ele>
        <time>2012-10-11T12:58:45Z</time>
      </trkpt>
      <trkpt lat="43.40467" lon="6.64427">
        <ele>245.6000061</ele>
        <time>2012-10-11T12:59:16Z</time>
      </trkpt>
      <trkpt lat="43.4057" lon="6.64541">
        <ele>264.3999939</ele>
        <time>2012-10-11T13:01:00Z</time>
      </trkpt>
      <trkpt lat="43.40585" lon="6.64566">
        <ele>266.3999939</ele>
        <time>2012-10-11T13:01:16Z</time>
      </trkpt>
      <trkpt lat="43.40599" lon="6.64577">
        <ele>266.3999939</ele>
        <time>2012-10-11T13:01:25Z</time>
      </trkpt>
      <trkpt lat="43.4069" lon="6.64556">
        <ele>279.2000122</ele>
        <time>2012-10-11T13:02:38Z</time>
      </trkpt>
      <trkpt lat="43.40767" lon="6.64535">
        <ele>279.2000122</ele>
        <time>2012-10-11T13:03:01Z</time>
      </trkpt>
      <trkpt lat="43.40848" lon="6.64545">
        <ele>287.6000061</ele>
        <time>2012-10-11T13:03:53Z</time>
      </trkpt>
      <trkpt lat="43.4086" lon="6.64547">
        <ele>288.2000122</ele>
        <time>2012-10-11T13:04:02Z</time>
      </trkpt>
      <trkpt lat="43.40851" lon="6.6467">
        <ele>306.6000061</ele>
        <time>2012-10-11T13:06:04Z</time>
      </trkpt>
      <trkpt lat="43.4085" lon="6.64686">
        <ele>306.6000061</ele>
        <time>2012-10-11T13:06:13Z</time>
      </trkpt>
      <trkpt lat="43.40826" lon="6.64743">
        <ele>312.6000061</ele>
        <time>2012-10-11T13:07:05Z</time>
      </trkpt>
      <trkpt lat="43.40805" lon="6.64802">
        <ele>314.7999878</ele>
        <time>2012-10-11T13:07:36Z</time>
      </trkpt>
      <trkpt lat="43.40702" lon="6.6471">
        <ele>314.7999878</ele>
        <time>2012-10-11T13:08:27Z</time>
      </trkpt>
      <trkpt lat="43.40661" lon="6.64761">
        <ele>312.6000061</ele>
        <time>2012-10-11T13:08:38Z</time>
      </trkpt>
      <trkpt lat="43.40646" lon="6.64769">
        <ele>310.3999939</ele>
        <time>2012-10-11T13:08:41Z</time>
      </trkpt>
      <trkpt lat="43.40601" lon="6.64735">
        <ele>304.6000061</ele>
        <time>2012-10-11T13:08:50Z</time>
      </trkpt>
      <trkpt lat="43.40573" lon="6.64753">
        <ele>299.7999878</ele>
        <time>2012-10-11T13:08:58Z</time>
      </trkpt>
      <trkpt lat="43.40419" lon="6.64667">
        <ele>315.2000122</ele>
        <time>2012-10-11T13:10:42Z</time>
      </trkpt>
      <trkpt lat="43.40358" lon="6.64664">
        <ele>321</ele>
        <time>2012-10-11T13:11:25Z</time>
      </trkpt>
      <trkpt lat="43.40323" lon="6.64679">
        <ele>321</ele>
        <time>2012-10-11T13:11:41Z</time>
      </trkpt>
      <trkpt lat="43.40262" lon="6.64652">
        <ele>329.2000122</ele>
        <time>2012-10-11T13:12:24Z</time>
      </trkpt>
      <trkpt lat="43.40241" lon="6.64648">
        <ele>329.2000122</ele>
        <time>2012-10-11T13:12:33Z</time>
      </trkpt>
      <trkpt lat="43.40161" lon="6.64654">
        <ele>329.2000122</ele>
        <time>2012-10-11T13:13:02Z</time>
      </trkpt>
      <trkpt lat="43.40046" lon="6.64761">
        <ele>331.2000122</ele>
        <time>2012-10-11T13:13:48Z</time>
      </trkpt>
      <trkpt lat="43.40033" lon="6.64756">
        <ele>330.7999878</ele>
        <time>2012-10-11T13:13:52Z</time>
      </trkpt>
      <trkpt lat="43.40001" lon="6.64718">
        <ele>318</ele>
        <time>2012-10-11T13:14:08Z</time>
      </trkpt>
      <trkpt lat="43.39972" lon="6.64714">
        <ele>311.6000061</ele>
        <time>2012-10-11T13:14:17Z</time>
      </trkpt>
      <trkpt lat="43.39949" lon="6.6469">
        <ele>301.7999878</ele>
        <time>2012-10-11T13:14:31Z</time>
      </trkpt>
      <trkpt lat="43.39923" lon="6.64675">
        <ele>287.2000122</ele>
        <time>2012-10-11T13:15:15Z</time>
      </trkpt>
      <trkpt lat="43.39916" lon="6.64649">
        <ele>282.3999939</ele>
        <time>2012-10-11T13:15:32Z</time>
      </trkpt>
      <trkpt lat="43.39887" lon="6.64598">
        <ele>265.3999939</ele>
        <time>2012-10-11T13:16:29Z</time>
      </trkpt>
      <trkpt lat="43.39833" lon="6.64598">
        <ele>255.6000061</ele>
        <time>2012-10-11T13:16:46Z</time>
      </trkpt>
      <trkpt lat="43.39811" lon="6.6453">
        <ele>247.3999939</ele>
        <time>2012-10-11T13:17:01Z</time>
      </trkpt>
      <trkpt lat="43.39722" lon="6.64508">
        <ele>247</ele>
        <time>2012-10-11T13:17:37Z</time>
      </trkpt>
      <trkpt lat="43.39678" lon="6.64527">
        <ele>246.6000061</ele>
        <time>2012-10-11T13:17:55Z</time>
      </trkpt>
      <trkpt lat="43.39614" lon="6.64543">
        <ele>239.1999969</ele>
        <time>2012-10-11T13:18:05Z</time>
      </trkpt>
      <trkpt lat="43.39563" lon="6.64593">
        <ele>230.6000061</ele>
        <time>2012-10-11T13:18:19Z</time>
      </trkpt>
      <trkpt lat="43.39436" lon="6.64653">
        <ele>211.8000031</ele>
        <time>2012-10-11T13:18:44Z</time>
      </trkpt>
      <trkpt lat="43.3936" lon="6.64632">
        <ele>204.6000061</ele>
        <time>2012-10-11T13:18:59Z</time>
      </trkpt>
      <trkpt lat="43.39338" lon="6.64634">
        <ele>201.3999939</ele>
        <time>2012-10-11T13:19:05Z</time>
      </trkpt>
      <trkpt lat="43.39312" lon="6.64586">
        <ele>200.1999969</ele>
        <time>2012-10-11T13:19:21Z</time>
      </trkpt>
      <trkpt lat="43.39275" lon="6.64577">
        <ele>197.6000061</ele>
        <time>2012-10-11T13:19:28Z</time>
      </trkpt>
      <trkpt lat="43.39162" lon="6.64612">
        <ele>190.3999939</ele>
        <time>2012-10-11T13:19:46Z</time>
      </trkpt>
      <trkpt lat="43.39057" lon="6.6462">
        <ele>181.6000061</ele>
        <time>2012-10-11T13:20:01Z</time>
      </trkpt>
      <trkpt lat="43.39028" lon="6.64633">
        <ele>176.6000061</ele>
        <time>2012-10-11T13:20:06Z</time>
      </trkpt>
      <trkpt lat="43.38978" lon="6.6469">
        <ele>171.3999939</ele>
        <time>2012-10-11T13:20:15Z</time>
      </trkpt>
      <trkpt lat="43.38864" lon="6.64754">
        <ele>160.8000031</ele>
        <time>2012-10-11T13:20:30Z</time>
      </trkpt>
      <trkpt lat="43.38804" lon="6.64742">
        <ele>154.1999969</ele>
        <time>2012-10-11T13:20:38Z</time>
      </trkpt>
      <trkpt lat="43.38765" lon="6.6476">
        <ele>146.8000031</ele>
        <time>2012-10-11T13:20:49Z</time>
      </trkpt>
      <trkpt lat="43.38766" lon="6.64713">
        <ele>141.8000031</ele>
        <time>2012-10-11T13:21:00Z</time>
      </trkpt>
      <trkpt lat="43.38755" lon="6.64691">
        <ele>138.3999939</ele>
        <time>2012-10-11T13:21:08Z</time>
      </trkpt>
      <trkpt lat="43.38742" lon="6.64687">
        <ele>136.8000031</ele>
        <time>2012-10-11T13:21:11Z</time>
      </trkpt>
      <trkpt lat="43.38729" lon="6.64675">
        <ele>134</ele>
        <time>2012-10-11T13:21:15Z</time>
      </trkpt>
      <trkpt lat="43.38721" lon="6.64666">
        <ele>132</ele>
        <time>2012-10-11T13:21:18Z</time>
      </trkpt>
      <trkpt lat="43.38664" lon="6.6464">
        <ele>114.5999985</ele>
        <time>2012-10-11T13:21:43Z</time>
      </trkpt>
      <trkpt lat="43.38654" lon="6.64649">
        <ele>109.8000031</ele>
        <time>2012-10-11T13:21:49Z</time>
      </trkpt>
      <trkpt lat="43.386" lon="6.64612">
        <ele>99.1999969</ele>
        <time>2012-10-11T13:22:08Z</time>
      </trkpt>
      <trkpt lat="43.38622" lon="6.6457">
        <ele>91.1999969</ele>
        <time>2012-10-11T13:22:25Z</time>
      </trkpt>
      <trkpt lat="43.38625" lon="6.64544">
        <ele>84.8000031</ele>
        <time>2012-10-11T13:22:52Z</time>
      </trkpt>
      <trkpt lat="43.38541" lon="6.64528">
        <ele>75.4000015</ele>
        <time>2012-10-11T13:23:19Z</time>
      </trkpt>
      <trkpt lat="43.38482" lon="6.64561">
        <ele>77.5999985</ele>
        <time>2012-10-11T13:23:41Z</time>
      </trkpt>
      <trkpt lat="43.38369" lon="6.64569">
        <ele>100.4000015</ele>
        <time>2012-10-11T13:26:09Z</time>
      </trkpt>
      <trkpt lat="43.38353" lon="6.64579">
        <ele>102.5999985</ele>
        <time>2012-10-11T13:26:25Z</time>
      </trkpt>
      <trkpt lat="43.3834" lon="6.64586">
        <ele>102.5999985</ele>
        <time>2012-10-11T13:26:36Z</time>
      </trkpt>
      <trkpt lat="43.38222" lon="6.6455">
        <ele>102.5999985</ele>
        <time>2012-10-11T13:27:49Z</time>
      </trkpt>
      <trkpt lat="43.38203" lon="6.64496">
        <ele>104.5999985</ele>
        <time>2012-10-11T13:28:05Z</time>
      </trkpt>
      <trkpt lat="43.38212" lon="6.64335">
        <ele>104.5999985</ele>
        <time>2012-10-11T13:28:38Z</time>
      </trkpt>
      <trkpt lat="43.38204" lon="6.64329">
        <ele>104.1999969</ele>
        <time>2012-10-11T13:28:40Z</time>
      </trkpt>
      <trkpt lat="43.38159" lon="6.64364">
        <ele>99.8000031</ele>
        <time>2012-10-11T13:28:48Z</time>
      </trkpt>
      <trkpt lat="43.38128" lon="6.64426">
        <ele>97.4000015</ele>
        <time>2012-10-11T13:28:56Z</time>
      </trkpt>
      <trkpt lat="43.38124" lon="6.64432">
        <ele>97</ele>
        <time>2012-10-11T13:28:57Z</time>
      </trkpt>
      <trkpt lat="43.38114" lon="6.64439">
        <ele>96.1999969</ele>
        <time>2012-10-11T13:28:59Z</time>
      </trkpt>
      <trkpt lat="43.38069" lon="6.64418">
        <ele>92</ele>
        <time>2012-10-11T13:29:07Z</time>
      </trkpt>
      <trkpt lat="43.38019" lon="6.64455">
        <ele>90</ele>
        <time>2012-10-11T13:29:17Z</time>
      </trkpt>
      <trkpt lat="43.37946" lon="6.64443">
        <ele>89.1999969</ele>
        <time>2012-10-11T13:29:32Z</time>
      </trkpt>
      <trkpt lat="43.37869" lon="6.64458">
        <ele>89.1999969</ele>
        <time>2012-10-11T13:29:50Z</time>
      </trkpt>
      <trkpt lat="43.37772" lon="6.6452">
        <ele>91.1999969</ele>
        <time>2012-10-11T13:30:20Z</time>
      </trkpt>
      <trkpt lat="43.37735" lon="6.64581">
        <ele>95.5999985</ele>
        <time>2012-10-11T13:30:48Z</time>
      </trkpt>
      <trkpt lat="43.37721" lon="6.6459">
        <ele>95.5999985</ele>
        <time>2012-10-11T13:30:55Z</time>
      </trkpt>
      <trkpt lat="43.37649" lon="6.64583">
        <ele>99.8000031</ele>
        <time>2012-10-11T13:31:26Z</time>
      </trkpt>
      <trkpt lat="43.37572" lon="6.64593">
        <ele>99.8000031</ele>
        <time>2012-10-11T13:31:46Z</time>
      </trkpt>
      <trkpt lat="43.37373" lon="6.6476">
        <ele>102</ele>
        <time>2012-10-11T13:32:55Z</time>
      </trkpt>
      <trkpt lat="43.37279" lon="6.64771">
        <ele>104</ele>
        <time>2012-10-11T13:33:24Z</time>
      </trkpt>
      <trkpt lat="43.37216" lon="6.64693">
        <ele>104.4000015</ele>
        <time>2012-10-11T13:33:53Z</time>
      </trkpt>
      <trkpt lat="43.37155" lon="6.64719">
        <ele>108.1999969</ele>
        <time>2012-10-11T13:34:14Z</time>
      </trkpt>
      <trkpt lat="43.37049" lon="6.64772">
        <ele>108.1999969</ele>
        <time>2012-10-11T13:34:49Z</time>
      </trkpt>
      <trkpt lat="43.36924" lon="6.64765">
        <ele>112.1999969</ele>
        <time>2012-10-11T13:35:31Z</time>
      </trkpt>
      <trkpt lat="43.36884" lon="6.64794">
        <ele>114.4000015</ele>
        <time>2012-10-11T13:35:49Z</time>
      </trkpt>
      <trkpt lat="43.36863" lon="6.6486">
        <ele>116.4000015</ele>
        <time>2012-10-11T13:36:15Z</time>
      </trkpt>
      <trkpt lat="43.36731" lon="6.64882">
        <ele>118.4000015</ele>
        <time>2012-10-11T13:37:00Z</time>
      </trkpt>
      <trkpt lat="43.36657" lon="6.64916">
        <ele>122.5999985</ele>
        <time>2012-10-11T13:37:29Z</time>
      </trkpt>
      <trkpt lat="43.3657" lon="6.64974">
        <ele>124.5999985</ele>
        <time>2012-10-11T13:38:04Z</time>
      </trkpt>
      <trkpt lat="43.36568" lon="6.64977">
        <ele>124.5999985</ele>
        <time>2012-10-11T13:38:06Z</time>
      </trkpt>
      <trkpt lat="43.36588" lon="6.65203">
        <ele>130.8000031</ele>
        <time>2012-10-11T13:39:05Z</time>
      </trkpt>
      <trkpt lat="43.36582" lon="6.65298">
        <ele>131.1999969</ele>
        <time>2012-10-11T13:39:30Z</time>
      </trkpt>
      <trkpt lat="43.36615" lon="6.65534">
        <ele>141.1999969</ele>
        <time>2012-10-11T13:40:46Z</time>
      </trkpt>
      <trkpt lat="43.36612" lon="6.65591">
        <ele>141.1999969</ele>
        <time>2012-10-11T13:41:08Z</time>
      </trkpt>
      <trkpt lat="43.36631" lon="6.65637">
        <ele>145.3999939</ele>
        <time>2012-10-11T13:41:32Z</time>
      </trkpt>
      <trkpt lat="43.36648" lon="6.65685">
        <ele>146</ele>
        <time>2012-10-11T13:41:52Z</time>
      </trkpt>
      <trkpt lat="43.36682" lon="6.65757">
        <ele>150.6000061</ele>
        <time>2012-10-11T13:42:26Z</time>
      </trkpt>
      <trkpt lat="43.36651" lon="6.65839">
        <ele>156</ele>
        <time>2012-10-11T13:43:04Z</time>
      </trkpt>
      <trkpt lat="43.36648" lon="6.65862">
        <ele>156</ele>
        <time>2012-10-11T13:43:13Z</time>
      </trkpt>
      <trkpt lat="43.36688" lon="6.65863">
        <ele>160.1999969</ele>
        <time>2012-10-11T13:43:40Z</time>
      </trkpt>
      <trkpt lat="43.36707" lon="6.65858">
        <ele>161.3999939</ele>
        <time>2012-10-11T13:43:52Z</time>
      </trkpt>
      <trkpt lat="43.3674" lon="6.65962">
        <ele>172.6000061</ele>
        <time>2012-10-11T13:44:55Z</time>
      </trkpt>
      <trkpt lat="43.36746" lon="6.65996">
        <ele>174.8000031</ele>
        <time>2012-10-11T13:45:15Z</time>
      </trkpt>
      <trkpt lat="43.36759" lon="6.66033">
        <ele>176</ele>
        <time>2012-10-11T13:45:33Z</time>
      </trkpt>
      <trkpt lat="43.36761" lon="6.66173">
        <ele>185.1999969</ele>
        <time>2012-10-11T13:46:33Z</time>
      </trkpt>
      <trkpt lat="43.36725" lon="6.66236">
        <ele>189.1999969</ele>
        <time>2012-10-11T13:47:02Z</time>
      </trkpt>
      <trkpt lat="43.36696" lon="6.6624">
        <ele>189.1999969</ele>
        <time>2012-10-11T13:47:18Z</time>
      </trkpt>
      <trkpt lat="43.36693" lon="6.66282">
        <ele>188.8000031</ele>
        <time>2012-10-11T13:52:57Z</time>
      </trkpt>
      <trkpt lat="43.36671" lon="6.66302">
        <ele>183.8000031</ele>
        <time>2012-10-11T13:53:09Z</time>
      </trkpt>
      <trkpt lat="43.36673" lon="6.66418">
        <ele>178</ele>
        <time>2012-10-11T13:53:27Z</time>
      </trkpt>
      <trkpt lat="43.36689" lon="6.66554">
        <ele>155.1999969</ele>
        <time>2012-10-11T13:54:25Z</time>
      </trkpt>
      <trkpt lat="43.36718" lon="6.66622">
        <ele>147.6000061</ele>
        <time>2012-10-11T13:54:39Z</time>
      </trkpt>
      <trkpt lat="43.36729" lon="6.66684">
        <ele>135.8000031</ele>
        <time>2012-10-11T13:54:57Z</time>
      </trkpt>
      <trkpt lat="43.3673" lon="6.66824">
        <ele>126.8000031</ele>
        <time>2012-10-11T13:55:17Z</time>
      </trkpt>
      <trkpt lat="43.36716" lon="6.66866">
        <ele>123.1999969</ele>
        <time>2012-10-11T13:55:24Z</time>
      </trkpt>
      <trkpt lat="43.36696" lon="6.66865">
        <ele>120.5999985</ele>
        <time>2012-10-11T13:55:29Z</time>
      </trkpt>
      <trkpt lat="43.36709" lon="6.6698">
        <ele>123.5999985</ele>
        <time>2012-10-11T13:56:17Z</time>
      </trkpt>
      <trkpt lat="43.36682" lon="6.67097">
        <ele>123.5999985</ele>
        <time>2012-10-11T13:56:45Z</time>
      </trkpt>
      <trkpt lat="43.3669" lon="6.672">
        <ele>116.4000015</ele>
        <time>2012-10-11T13:56:58Z</time>
      </trkpt>
      <trkpt lat="43.36665" lon="6.67222">
        <ele>114.8000031</ele>
        <time>2012-10-11T13:57:08Z</time>
      </trkpt>
      <trkpt lat="43.36659" lon="6.67275">
        <ele>112</ele>
        <time>2012-10-11T13:57:16Z</time>
      </trkpt>
      <trkpt lat="43.3665" lon="6.67297">
        <ele>110.4000015</ele>
        <time>2012-10-11T13:57:22Z</time>
      </trkpt>
      <trkpt lat="43.36699" lon="6.67352">
        <ele>110.8000031</ele>
        <time>2012-10-11T13:57:47Z</time>
      </trkpt>
      <trkpt lat="43.36708" lon="6.67424">
        <ele>114.5999985</ele>
        <time>2012-10-11T13:58:09Z</time>
      </trkpt>
      <trkpt lat="43.36765" lon="6.67591">
        <ele>114.5999985</ele>
        <time>2012-10-11T13:58:48Z</time>
      </trkpt>
      <trkpt lat="43.36745" lon="6.6772">
        <ele>124</ele>
        <time>2012-10-11T13:59:44Z</time>
      </trkpt>
      <trkpt lat="43.3677" lon="6.67932">
        <ele>152.6000061</ele>
        <time>2012-10-11T14:01:56Z</time>
      </trkpt>
      <trkpt lat="43.36769" lon="6.67936">
        <ele>152.6000061</ele>
        <time>2012-10-11T14:01:59Z</time>
      </trkpt>
      <trkpt lat="43.36748" lon="6.67995">
        <ele>154.6000061</ele>
        <time>2012-10-11T14:02:36Z</time>
      </trkpt>
      <trkpt lat="43.36698" lon="6.68019">
        <ele>154.6000061</ele>
        <time>2012-10-11T14:02:59Z</time>
      </trkpt>
      <trkpt lat="43.36709" lon="6.68085">
        <ele>156.8000031</ele>
        <time>2012-10-11T14:03:20Z</time>
      </trkpt>
      <trkpt lat="43.36721" lon="6.68113">
        <ele>156.8000031</ele>
        <time>2012-10-11T14:03:30Z</time>
      </trkpt>
      <trkpt lat="43.36714" lon="6.68166">
        <ele>156.8000031</ele>
        <time>2012-10-11T14:03:43Z</time>
      </trkpt>
      <trkpt lat="43.3665" lon="6.68245">
        <ele>156.8000031</ele>
        <time>2012-10-11T14:04:10Z</time>
      </trkpt>
      <trkpt lat="43.36568" lon="6.68202">
        <ele>156.8000031</ele>
        <time>2012-10-11T14:04:36Z</time>
      </trkpt>
      <trkpt lat="43.36528" lon="6.68141">
        <ele>156.8000031</ele>
        <time>2012-10-11T14:04:51Z</time>
      </trkpt>
      <trkpt lat="43.36447" lon="6.68125">
        <ele>156.8000031</ele>
        <time>2012-10-11T14:05:11Z</time>
      </trkpt>
      <trkpt lat="43.36441" lon="6.68307">
        <ele>156.8000031</ele>
        <time>2012-10-11T14:05:43Z</time>
      </trkpt>
      <trkpt lat="43.36363" lon="6.68364">
        <ele>156.8000031</ele>
        <time>2012-10-11T14:06:05Z</time>
      </trkpt>
      <trkpt lat="43.36341" lon="6.68413">
        <ele>156.8000031</ele>
        <time>2012-10-11T14:06:17Z</time>
      </trkpt>
      <trkpt lat="43.36336" lon="6.68436">
        <ele>154.6000061</ele>
        <time>2012-10-11T14:06:27Z</time>
      </trkpt>
      <trkpt lat="43.36379" lon="6.68496">
        <ele>159</ele>
        <time>2012-10-11T14:07:13Z</time>
      </trkpt>
      <trkpt lat="43.36402" lon="6.68531">
        <ele>159</ele>
        <time>2012-10-11T14:07:27Z</time>
      </trkpt>
      <trkpt lat="43.36444" lon="6.68563">
        <ele>163</ele>
        <time>2012-10-11T14:07:49Z</time>
      </trkpt>
      <trkpt lat="43.36485" lon="6.68633">
        <ele>163</ele>
        <time>2012-10-11T14:08:11Z</time>
      </trkpt>
      <trkpt lat="43.36519" lon="6.68712">
        <ele>159.6000061</ele>
        <time>2012-10-11T14:08:23Z</time>
      </trkpt>
      <trkpt lat="43.36513" lon="6.68783">
        <ele>156.8000031</ele>
        <time>2012-10-11T14:08:33Z</time>
      </trkpt>
      <trkpt lat="43.36499" lon="6.68806">
        <ele>156.8000031</ele>
        <time>2012-10-11T14:08:38Z</time>
      </trkpt>
      <trkpt lat="43.36471" lon="6.68808">
        <ele>156.8000031</ele>
        <time>2012-10-11T14:08:46Z</time>
      </trkpt>
      <trkpt lat="43.36446" lon="6.68837">
        <ele>152.3999939</ele>
        <time>2012-10-11T14:08:53Z</time>
      </trkpt>
      <trkpt lat="43.36381" lon="6.68845">
        <ele>149.6000061</ele>
        <time>2012-10-11T14:09:16Z</time>
      </trkpt>
      <trkpt lat="43.36337" lon="6.68931">
        <ele>152</ele>
        <time>2012-10-11T14:09:47Z</time>
      </trkpt>
      <trkpt lat="43.36288" lon="6.68975">
        <ele>150.1999969</ele>
        <time>2012-10-11T14:10:03Z</time>
      </trkpt>
      <trkpt lat="43.36274" lon="6.69061">
        <ele>164.1999969</ele>
        <time>2012-10-11T14:11:38Z</time>
      </trkpt>
      <trkpt lat="43.3627" lon="6.69121">
        <ele>164.1999969</ele>
        <time>2012-10-11T14:11:51Z</time>
      </trkpt>
      <trkpt lat="43.36292" lon="6.69222">
        <ele>162.3999939</ele>
        <time>2012-10-11T14:12:11Z</time>
      </trkpt>
      <trkpt lat="43.36328" lon="6.69229">
        <ele>158.3999939</ele>
        <time>2012-10-11T14:12:17Z</time>
      </trkpt>
      <trkpt lat="43.36412" lon="6.69295">
        <ele>149.3999939</ele>
        <time>2012-10-11T14:12:29Z</time>
      </trkpt>
      <trkpt lat="43.36443" lon="6.69315">
        <ele>145.3999939</ele>
        <time>2012-10-11T14:12:34Z</time>
      </trkpt>
      <trkpt lat="43.36462" lon="6.69462">
        <ele>140</ele>
        <time>2012-10-11T14:12:54Z</time>
      </trkpt>
      <trkpt lat="43.36505" lon="6.69514">
        <ele>135</ele>
        <time>2012-10-11T14:13:01Z</time>
      </trkpt>
      <trkpt lat="43.36552" lon="6.69652">
        <ele>130.1999969</ele>
        <time>2012-10-11T14:13:16Z</time>
      </trkpt>
      <trkpt lat="43.36576" lon="6.69715">
        <ele>124.8000031</ele>
        <time>2012-10-11T14:13:24Z</time>
      </trkpt>
      <trkpt lat="43.36581" lon="6.69732">
        <ele>121.4000015</ele>
        <time>2012-10-11T14:13:27Z</time>
      </trkpt>
      <trkpt lat="43.36506" lon="6.69668">
        <ele>123.8000031</ele>
        <time>2012-10-11T14:14:07Z</time>
      </trkpt>
      <trkpt lat="43.36459" lon="6.69723">
        <ele>125.8000031</ele>
        <time>2012-10-11T14:14:33Z</time>
      </trkpt>
      <trkpt lat="43.36413" lon="6.69718">
        <ele>133.3999939</ele>
        <time>2012-10-11T14:15:07Z</time>
      </trkpt>
      <trkpt lat="43.36245" lon="6.69599">
        <ele>167.6000061</ele>
        <time>2012-10-11T14:18:41Z</time>
      </trkpt>
      <trkpt lat="43.36211" lon="6.69537">
        <ele>174.1999969</ele>
        <time>2012-10-11T14:19:40Z</time>
      </trkpt>
      <trkpt lat="43.36189" lon="6.69523">
        <ele>180.1999969</ele>
        <time>2012-10-11T14:20:09Z</time>
      </trkpt>
      <trkpt lat="43.36142" lon="6.69476">
        <ele>185.1999969</ele>
        <time>2012-10-11T14:20:52Z</time>
      </trkpt>
      <trkpt lat="43.36117" lon="6.69472">
        <ele>188.6000061</ele>
        <time>2012-10-11T14:21:11Z</time>
      </trkpt>
      <trkpt lat="43.36088" lon="6.69473">
        <ele>190.6000061</ele>
        <time>2012-10-11T14:21:27Z</time>
      </trkpt>
      <trkpt lat="43.36065" lon="6.69482">
        <ele>190.1999969</ele>
        <time>2012-10-11T14:21:34Z</time>
      </trkpt>
      <trkpt lat="43.36056" lon="6.69539">
        <ele>186.1999969</ele>
        <time>2012-10-11T14:21:45Z</time>
      </trkpt>
      <trkpt lat="43.36081" lon="6.69614">
        <ele>175.6000061</ele>
        <time>2012-10-11T14:22:00Z</time>
      </trkpt>
      <trkpt lat="43.36085" lon="6.69688">
        <ele>167</ele>
        <time>2012-10-11T14:22:10Z</time>
      </trkpt>
      <trkpt lat="43.36127" lon="6.69758">
        <ele>161.6000061</ele>
        <time>2012-10-11T14:22:23Z</time>
      </trkpt>
      <trkpt lat="43.36137" lon="6.69809">
        <ele>158</ele>
        <time>2012-10-11T14:22:30Z</time>
      </trkpt>
      <trkpt lat="43.36135" lon="6.69834">
        <ele>154</ele>
        <time>2012-10-11T14:22:36Z</time>
      </trkpt>
      <trkpt lat="43.36059" lon="6.69785">
        <ele>146.3999939</ele>
        <time>2012-10-11T14:22:59Z</time>
      </trkpt>
      <trkpt lat="43.36035" lon="6.69765">
        <ele>143.1999969</ele>
        <time>2012-10-11T14:23:06Z</time>
      </trkpt>
      <trkpt lat="43.35952" lon="6.69705">
        <ele>121.8000031</ele>
        <time>2012-10-11T14:23:45Z</time>
      </trkpt>
      <trkpt lat="43.35978" lon="6.69796">
        <ele>116.1999969</ele>
        <time>2012-10-11T14:24:01Z</time>
      </trkpt>
      <trkpt lat="43.36037" lon="6.69898">
        <ele>109.5999985</ele>
        <time>2012-10-11T14:24:15Z</time>
      </trkpt>
      <trkpt lat="43.36062" lon="6.69987">
        <ele>104.5999985</ele>
        <time>2012-10-11T14:24:25Z</time>
      </trkpt>
      <trkpt lat="43.36114" lon="6.70136">
        <ele>95.1999969</ele>
        <time>2012-10-11T14:24:43Z</time>
      </trkpt>
      <trkpt lat="43.36162" lon="6.70161">
        <ele>91.4000015</ele>
        <time>2012-10-11T14:24:52Z</time>
      </trkpt>
      <trkpt lat="43.3619" lon="6.70149">
        <ele>88.4000015</ele>
        <time>2012-10-11T14:24:58Z</time>
      </trkpt>
      <trkpt lat="43.36204" lon="6.70161">
        <ele>86.4000015</ele>
        <time>2012-10-11T14:25:01Z</time>
      </trkpt>
      <trkpt lat="43.36263" lon="6.70305">
        <ele>76.1999969</ele>
        <time>2012-10-11T14:25:26Z</time>
      </trkpt>
      <trkpt lat="43.36294" lon="6.70301">
        <ele>74</ele>
        <time>2012-10-11T14:25:33Z</time>
      </trkpt>
      <trkpt lat="43.36312" lon="6.70278">
        <ele>71</ele>
        <time>2012-10-11T14:25:39Z</time>
      </trkpt>
      <trkpt lat="43.36332" lon="6.70299">
        <ele>69.5999985</ele>
        <time>2012-10-11T14:25:46Z</time>
      </trkpt>
      <trkpt lat="43.36336" lon="6.70505">
        <ele>57.7999992</ele>
        <time>2012-10-11T14:26:18Z</time>
      </trkpt>
      <trkpt lat="43.3642" lon="6.70521">
        <ele>50.2000008</ele>
        <time>2012-10-11T14:26:37Z</time>
      </trkpt>
      <trkpt lat="43.36466" lon="6.70504">
        <ele>46.2000008</ele>
        <time>2012-10-11T14:26:47Z</time>
      </trkpt>
      <trkpt lat="43.36483" lon="6.70479">
        <ele>43.7999992</ele>
        <time>2012-10-11T14:26:54Z</time>
      </trkpt>
      <trkpt lat="43.36552" lon="6.70504">
        <ele>38.4000015</ele>
        <time>2012-10-11T14:27:14Z</time>
      </trkpt>
      <trkpt lat="43.36566" lon="6.70494">
        <ele>36.2000008</ele>
        <time>2012-10-11T14:27:19Z</time>
      </trkpt>
      <trkpt lat="43.36568" lon="6.70576">
        <ele>34</ele>
        <time>2012-10-11T14:27:37Z</time>
      </trkpt>
      <trkpt lat="43.36579" lon="6.70606">
        <ele>34</ele>
        <time>2012-10-11T14:27:44Z</time>
      </trkpt>
      <trkpt lat="43.36607" lon="6.7063">
        <ele>34</ele>
        <time>2012-10-11T14:27:54Z</time>
      </trkpt>
      <trkpt lat="43.36641" lon="6.70671">
        <ele>32</ele>
        <time>2012-10-11T14:28:06Z</time>
      </trkpt>
      <trkpt lat="43.36674" lon="6.70656">
        <ele>32</ele>
        <time>2012-10-11T14:28:16Z</time>
      </trkpt>
      <trkpt lat="43.36707" lon="6.70683">
        <ele>29.3999996</ele>
        <time>2012-10-11T14:28:24Z</time>
      </trkpt>
      <trkpt lat="43.36711" lon="6.70695">
        <ele>28.6000004</ele>
        <time>2012-10-11T14:28:26Z</time>
      </trkpt>
      <trkpt lat="43.36719" lon="6.70711">
        <ele>26.2000008</ele>
        <time>2012-10-11T14:28:30Z</time>
      </trkpt>
      <trkpt lat="43.36735" lon="6.70635">
        <ele>21.6000004</ele>
        <time>2012-10-11T14:28:49Z</time>
      </trkpt>
      <trkpt lat="43.36751" lon="6.7063">
        <ele>19.7999992</ele>
        <time>2012-10-11T14:28:53Z</time>
      </trkpt>
      <trkpt lat="43.36771" lon="6.70654">
        <ele>17.3999996</ele>
        <time>2012-10-11T14:28:59Z</time>
      </trkpt>
      <trkpt lat="43.36779" lon="6.70641">
        <ele>17.3999996</ele>
        <time>2012-10-11T14:29:03Z</time>
      </trkpt>
      <trkpt lat="43.36793" lon="6.70608">
        <ele>15.1999998</ele>
        <time>2012-10-11T14:29:10Z</time>
      </trkpt>
      <trkpt lat="43.36788" lon="6.70512">
        <ele>15.1999998</ele>
        <time>2012-10-11T14:29:30Z</time>
      </trkpt>
      <trkpt lat="43.36802" lon="6.70429">
        <ele>15.1999998</ele>
        <time>2012-10-11T14:29:46Z</time>
      </trkpt>
      <trkpt lat="43.36865" lon="6.70476">
        <ele>19.6000004</ele>
        <time>2012-10-11T14:30:29Z</time>
      </trkpt>
      <trkpt lat="43.36886" lon="6.70555">
        <ele>26.7999992</ele>
        <time>2012-10-11T14:31:16Z</time>
      </trkpt>
      <trkpt lat="43.36968" lon="6.70515">
        <ele>44.7999992</ele>
        <time>2012-10-11T14:32:35Z</time>
      </trkpt>
      <trkpt lat="43.36995" lon="6.70498">
        <ele>47</ele>
        <time>2012-10-11T14:32:56Z</time>
      </trkpt>
      <trkpt lat="43.3702" lon="6.7046">
        <ele>51.2000008</ele>
        <time>2012-10-11T14:33:21Z</time>
      </trkpt>
      <trkpt lat="43.37096" lon="6.70343">
        <ele>57.4000015</ele>
        <time>2012-10-11T14:34:21Z</time>
      </trkpt>
      <trkpt lat="43.37146" lon="6.70195">
        <ele>61.5999985</ele>
        <time>2012-10-11T14:35:14Z</time>
      </trkpt>
      <trkpt lat="43.3729" lon="6.70154">
        <ele>76.1999969</ele>
        <time>2012-10-11T14:36:46Z</time>
      </trkpt>
      <trkpt lat="43.37367" lon="6.70011">
        <ele>99.5999985</ele>
        <time>2012-10-11T14:38:35Z</time>
      </trkpt>
      <trkpt lat="43.3737" lon="6.70006">
        <ele>100</ele>
        <time>2012-10-11T14:38:39Z</time>
      </trkpt>
      <trkpt lat="43.37414" lon="6.70036">
        <ele>112.1999969</ele>
        <time>2012-10-11T14:39:22Z</time>
      </trkpt>
      <trkpt lat="43.37475" lon="6.69961">
        <ele>115</ele>
        <time>2012-10-11T14:43:41Z</time>
      </trkpt>
      <trkpt lat="43.37504" lon="6.6994">
        <ele>117</ele>
        <time>2012-10-11T14:43:58Z</time>
      </trkpt>
      <trkpt lat="43.3754" lon="6.69996">
        <ele>119.5999985</ele>
        <time>2012-10-11T14:44:31Z</time>
      </trkpt>
      <trkpt lat="43.37576" lon="6.70001">
        <ele>125.4000015</ele>
        <time>2012-10-11T14:44:58Z</time>
      </trkpt>
      <trkpt lat="43.37658" lon="6.69974">
        <ele>125.4000015</ele>
        <time>2012-10-11T14:45:27Z</time>
      </trkpt>
      <trkpt lat="43.37715" lon="6.69931">
        <ele>119.8000031</ele>
        <time>2012-10-11T14:45:37Z</time>
      </trkpt>
      <trkpt lat="43.3775" lon="6.69988">
        <ele>118.8000031</ele>
        <time>2012-10-11T14:46:06Z</time>
      </trkpt>
      <trkpt lat="43.37806" lon="6.70028">
        <ele>129</ele>
        <time>2012-10-11T14:47:14Z</time>
      </trkpt>
      <trkpt lat="43.37851" lon="6.70038">
        <ele>133</ele>
        <time>2012-10-11T14:47:47Z</time>
      </trkpt>
      <trkpt lat="43.37888" lon="6.70071">
        <ele>133</ele>
        <time>2012-10-11T14:48:03Z</time>
      </trkpt>
      <trkpt lat="43.37907" lon="6.70127">
        <ele>133</ele>
        <time>2012-10-11T14:48:12Z</time>
      </trkpt>
      <trkpt lat="43.37945" lon="6.70161">
        <ele>129</ele>
        <time>2012-10-11T14:48:19Z</time>
      </trkpt>
      <trkpt lat="43.38085" lon="6.70069">
        <ele>114.1999969</ele>
        <time>2012-10-11T14:48:42Z</time>
      </trkpt>
      <trkpt lat="43.38194" lon="6.70075">
        <ele>96.8000031</ele>
        <time>2012-10-11T14:49:05Z</time>
      </trkpt>
      <trkpt lat="43.38206" lon="6.70107">
        <ele>95.1999969</ele>
        <time>2012-10-11T14:49:14Z</time>
      </trkpt>
      <trkpt lat="43.38292" lon="6.70189">
        <ele>95.1999969</ele>
        <time>2012-10-11T14:49:45Z</time>
      </trkpt>
      <trkpt lat="43.38312" lon="6.70289">
        <ele>97.4000015</ele>
        <time>2012-10-11T14:50:01Z</time>
      </trkpt>
      <trkpt lat="43.38314" lon="6.70297">
        <ele>97.4000015</ele>
        <time>2012-10-11T14:50:03Z</time>
      </trkpt>
      <trkpt lat="43.38343" lon="6.70317">
        <ele>98.8000031</ele>
        <time>2012-10-11T14:50:15Z</time>
      </trkpt>
      <trkpt lat="43.38357" lon="6.70347">
        <ele>101.5999985</ele>
        <time>2012-10-11T14:50:30Z</time>
      </trkpt>
      <trkpt lat="43.3837" lon="6.70359">
        <ele>101.5999985</ele>
        <time>2012-10-11T14:50:47Z</time>
      </trkpt>
      <trkpt lat="43.3843" lon="6.70392">
        <ele>112.1999969</ele>
        <time>2012-10-11T14:52:07Z</time>
      </trkpt>
      <trkpt lat="43.38436" lon="6.704">
        <ele>112.1999969</ele>
        <time>2012-10-11T14:52:15Z</time>
      </trkpt>
      <trkpt lat="43.38403" lon="6.70467">
        <ele>118.1999969</ele>
        <time>2012-10-11T14:52:55Z</time>
      </trkpt>
      <trkpt lat="43.38363" lon="6.70506">
        <ele>126.8000031</ele>
        <time>2012-10-11T14:53:31Z</time>
      </trkpt>
      <trkpt lat="43.38357" lon="6.70531">
        <ele>126.8000031</ele>
        <time>2012-10-11T14:53:46Z</time>
      </trkpt>
      <trkpt lat="43.38358" lon="6.70516">
        <ele>126.8000031</ele>
        <time>2012-10-11T14:56:46Z</time>
      </trkpt>
      <trkpt lat="43.38379" lon="6.70513">
        <ele>126.8000031</ele>
        <time>2012-10-11T14:56:54Z</time>
      </trkpt>
      <trkpt lat="43.38413" lon="6.70523">
        <ele>122.1999969</ele>
        <time>2012-10-11T14:57:05Z</time>
      </trkpt>
      <trkpt lat="43.3844" lon="6.70579">
        <ele>111.5999985</ele>
        <time>2012-10-11T14:57:17Z</time>
      </trkpt>
      <trkpt lat="43.38484" lon="6.70585">
        <ele>107</ele>
        <time>2012-10-11T14:57:25Z</time>
      </trkpt>
      <trkpt lat="43.38562" lon="6.70711">
        <ele>102</ele>
        <time>2012-10-11T14:57:56Z</time>
      </trkpt>
      <trkpt lat="43.38608" lon="6.70733">
        <ele>110.5999985</ele>
        <time>2012-10-11T14:58:30Z</time>
      </trkpt>
      <trkpt lat="43.38641" lon="6.7074">
        <ele>110.1999969</ele>
        <time>2012-10-11T14:58:41Z</time>
      </trkpt>
      <trkpt lat="43.38652" lon="6.70722">
        <ele>106</ele>
        <time>2012-10-11T14:58:47Z</time>
      </trkpt>
      <trkpt lat="43.3873" lon="6.70722">
        <ele>107</ele>
        <time>2012-10-11T14:59:42Z</time>
      </trkpt>
      <trkpt lat="43.38774" lon="6.70694">
        <ele>107</ele>
        <time>2012-10-11T14:59:55Z</time>
      </trkpt>
      <trkpt lat="43.38835" lon="6.70669">
        <ele>100.1999969</ele>
        <time>2012-10-11T15:00:07Z</time>
      </trkpt>
      <trkpt lat="43.38941" lon="6.70568">
        <ele>99.4000015</ele>
        <time>2012-10-11T15:00:50Z</time>
      </trkpt>
      <trkpt lat="43.38974" lon="6.70584">
        <ele>91.4000015</ele>
        <time>2012-10-11T15:01:03Z</time>
      </trkpt>
      <trkpt lat="43.39004" lon="6.70526">
        <ele>83.4000015</ele>
        <time>2012-10-11T15:01:19Z</time>
      </trkpt>
      <trkpt lat="43.39024" lon="6.70533">
        <ele>76.5999985</ele>
        <time>2012-10-11T15:01:29Z</time>
      </trkpt>
      <trkpt lat="43.39027" lon="6.70509">
        <ele>73.4000015</ele>
        <time>2012-10-11T15:01:40Z</time>
      </trkpt>
      <trkpt lat="43.39051" lon="6.70531">
        <ele>67.4000015</ele>
        <time>2012-10-11T15:01:51Z</time>
      </trkpt>
      <trkpt lat="43.3906" lon="6.70576">
        <ele>65.4000015</ele>
        <time>2012-10-11T15:01:59Z</time>
      </trkpt>
      <trkpt lat="43.39099" lon="6.70613">
        <ele>63.5999985</ele>
        <time>2012-10-11T15:02:08Z</time>
      </trkpt>
      <trkpt lat="43.39118" lon="6.70618">
        <ele>60.5999985</ele>
        <time>2012-10-11T15:02:14Z</time>
      </trkpt>
      <trkpt lat="43.39133" lon="6.70656">
        <ele>58.5999985</ele>
        <time>2012-10-11T15:02:22Z</time>
      </trkpt>
      <trkpt lat="43.39239" lon="6.70701">
        <ele>54.4000015</ele>
        <time>2012-10-11T15:02:55Z</time>
      </trkpt>
      <trkpt lat="43.39241" lon="6.70701">
        <ele>54</ele>
        <time>2012-10-11T15:02:56Z</time>
      </trkpt>
      <trkpt lat="43.39268" lon="6.707">
        <ele>47</ele>
        <time>2012-10-11T15:03:11Z</time>
      </trkpt>
      <trkpt lat="43.39257" lon="6.70677">
        <ele>42.7999992</ele>
        <time>2012-10-11T15:03:20Z</time>
      </trkpt>
      <trkpt lat="43.39265" lon="6.70662">
        <ele>42.4000015</ele>
        <time>2012-10-11T15:03:26Z</time>
      </trkpt>
      <trkpt lat="43.39349" lon="6.70653">
        <ele>49.4000015</ele>
        <time>2012-10-11T15:05:16Z</time>
      </trkpt>
      <trkpt lat="43.39442" lon="6.70684">
        <ele>55.4000015</ele>
        <time>2012-10-11T15:05:59Z</time>
      </trkpt>
      <trkpt lat="43.39453" lon="6.70686">
        <ele>55.4000015</ele>
        <time>2012-10-11T15:06:04Z</time>
      </trkpt>
      <trkpt lat="43.39493" lon="6.70663">
        <ele>58</ele>
        <time>2012-10-11T15:06:34Z</time>
      </trkpt>
      <trkpt lat="43.39505" lon="6.70623">
        <ele>61.7999992</ele>
        <time>2012-10-11T15:06:51Z</time>
      </trkpt>
      <trkpt lat="43.39513" lon="6.70603">
        <ele>61.7999992</ele>
        <time>2012-10-11T15:06:58Z</time>
      </trkpt>
      <trkpt lat="43.3954" lon="6.70605">
        <ele>61.7999992</ele>
        <time>2012-10-11T15:07:08Z</time>
      </trkpt>
      <trkpt lat="43.39553" lon="6.70634">
        <ele>57.7999992</ele>
        <time>2012-10-11T15:07:17Z</time>
      </trkpt>
      <trkpt lat="43.39586" lon="6.70602">
        <ele>52.4000015</ele>
        <time>2012-10-11T15:07:43Z</time>
      </trkpt>
      <trkpt lat="43.39614" lon="6.70687">
        <ele>57</ele>
        <time>2012-10-11T15:08:24Z</time>
      </trkpt>
      <trkpt lat="43.3966" lon="6.70665">
        <ele>63.4000015</ele>
        <time>2012-10-11T15:09:00Z</time>
      </trkpt>
      <trkpt lat="43.3969" lon="6.70647">
        <ele>63.4000015</ele>
        <time>2012-10-11T15:11:10Z</time>
      </trkpt>
      <trkpt lat="43.39738" lon="6.70654">
        <ele>63.4000015</ele>
        <time>2012-10-11T15:11:23Z</time>
      </trkpt>
      <trkpt lat="43.3977" lon="6.70575">
        <ele>63.4000015</ele>
        <time>2012-10-11T15:11:39Z</time>
      </trkpt>
      <trkpt lat="43.3983" lon="6.70481">
        <ele>63.4000015</ele>
        <time>2012-10-11T15:12:06Z</time>
      </trkpt>
      <trkpt lat="43.39858" lon="6.70526">
        <ele>67.5999985</ele>
        <time>2012-10-11T15:12:31Z</time>
      </trkpt>
      <trkpt lat="43.39889" lon="6.70582">
        <ele>67.5999985</ele>
        <time>2012-10-11T15:12:43Z</time>
      </trkpt>
      <trkpt lat="43.39924" lon="6.70588">
        <ele>65.4000015</ele>
        <time>2012-10-11T15:12:52Z</time>
      </trkpt>
      <trkpt lat="43.39978" lon="6.70544">
        <ele>69.4000015</ele>
        <time>2012-10-11T15:13:22Z</time>
      </trkpt>
      <trkpt lat="43.40005" lon="6.70425">
        <ele>69.4000015</ele>
        <time>2012-10-11T15:13:50Z</time>
      </trkpt>
      <trkpt lat="43.4004" lon="6.70422">
        <ele>69.4000015</ele>
        <time>2012-10-11T15:14:00Z</time>
      </trkpt>
      <trkpt lat="43.40064" lon="6.70418">
        <ele>67.1999969</ele>
        <time>2012-10-11T15:14:08Z</time>
      </trkpt>
      <trkpt lat="43.40136" lon="6.70566">
        <ele>67.1999969</ele>
        <time>2012-10-11T15:15:01Z</time>
      </trkpt>
      <trkpt lat="43.40209" lon="6.70714">
        <ele>55.2000008</ele>
        <time>2012-10-11T15:15:33Z</time>
      </trkpt>
      <trkpt lat="43.4019" lon="6.70818">
        <ele>50.5999985</ele>
        <time>2012-10-11T15:15:47Z</time>
      </trkpt>
      <trkpt lat="43.40147" lon="6.70888">
        <ele>45.7999992</ele>
        <time>2012-10-11T15:15:58Z</time>
      </trkpt>
      <trkpt lat="43.40133" lon="6.70968">
        <ele>34.4000015</ele>
        <time>2012-10-11T15:16:13Z</time>
      </trkpt>
      <trkpt lat="43.40142" lon="6.71252">
        <ele>5.5999999</ele>
        <time>2012-10-11T15:16:56Z</time>
      </trkpt>
      <trkpt lat="43.4005" lon="6.71342">
        <ele>5.1999998</ele>
        <time>2012-10-11T15:17:22Z</time>
      </trkpt>
      <trkpt lat="43.39979" lon="6.71478">
        <ele>5.1999998</ele>
        <time>2012-10-11T15:17:50Z</time>
      </trkpt>
      <trkpt lat="43.3999" lon="6.71597">
        <ele>5.1999998</ele>
        <time>2012-10-11T15:18:11Z</time>
      </trkpt>
      <trkpt lat="43.39977" lon="6.71638">
        <ele>5.1999998</ele>
        <time>2012-10-11T15:18:21Z</time>
      </trkpt>
      <trkpt lat="43.3998" lon="6.71671">
        <ele>5.1999998</ele>
        <time>2012-10-11T15:18:45Z</time>
      </trkpt>
      <trkpt lat="43.39994" lon="6.7167">
        <ele>5.1999998</ele>
        <time>2012-10-11T15:19:03Z</time>
      </trkpt>
      <trkpt lat="43.3994" lon="6.71788">
        <ele>7.4000001</ele>
        <time>2012-10-11T15:19:34Z</time>
      </trkpt>
      <trkpt lat="43.39875" lon="6.71847">
        <ele>7.4000001</ele>
        <time>2012-10-11T15:19:53Z</time>
      </trkpt>
      <trkpt lat="43.39706" lon="6.71894">
        <ele>7.4000001</ele>
        <time>2012-10-11T15:20:30Z</time>
      </trkpt>
      <trkpt lat="43.39681" lon="6.72025">
        <ele>7.4000001</ele>
        <time>2012-10-11T15:20:48Z</time>
      </trkpt>
      <trkpt lat="43.39582" lon="6.72614">
        <ele>5.4000001</ele>
        <time>2012-10-11T15:22:11Z</time>
      </trkpt>
      <trkpt lat="43.39499" lon="6.72595">
        <ele>5.4000001</ele>
        <time>2012-10-11T15:22:29Z</time>
      </trkpt>
      <trkpt lat="43.39307" lon="6.72666">
        <ele>5.4000001</ele>
        <time>2012-10-11T15:23:10Z</time>
      </trkpt>
      <trkpt lat="43.3925" lon="6.7267">
        <ele>5.4000001</ele>
        <time>2012-10-11T15:23:22Z</time>
      </trkpt>
      <trkpt lat="43.39245" lon="6.72695">
        <ele>5.4000001</ele>
        <time>2012-10-11T15:23:28Z</time>
      </trkpt>
      <trkpt lat="43.39276" lon="6.7273">
        <ele>5.4000001</ele>
        <time>2012-10-11T15:23:38Z</time>
      </trkpt>
      <trkpt lat="43.39284" lon="6.72757">
        <ele>5.4000001</ele>
        <time>2012-10-11T15:23:48Z</time>
      </trkpt>
      <trkpt lat="43.3926" lon="6.72848">
        <ele>5.4000001</ele>
        <time>2012-10-11T15:24:16Z</time>
      </trkpt>
      <trkpt lat="43.39229" lon="6.72846">
        <ele>5.4000001</ele>
        <time>2012-10-11T15:24:54Z</time>
      </trkpt>
      <trkpt lat="43.39212" lon="6.72817">
        <ele>7.5999999</ele>
        <time>2012-10-11T15:25:22Z</time>
      </trkpt>
      <trkpt lat="43.39172" lon="6.72808">
        <ele>7.5999999</ele>
        <time>2012-10-11T15:25:37Z</time>
      </trkpt>
      <trkpt lat="43.39112" lon="6.72848">
        <ele>11.8000002</ele>
        <time>2012-10-11T15:25:57Z</time>
      </trkpt>
      <trkpt lat="43.39063" lon="6.72885">
        <ele>11.8000002</ele>
        <time>2012-10-11T15:26:12Z</time>
      </trkpt>
      <trkpt lat="43.38936" lon="6.72803">
        <ele>18.2000008</ele>
        <time>2012-10-11T15:26:56Z</time>
      </trkpt>
      <trkpt lat="43.38896" lon="6.7278">
        <ele>18.2000008</ele>
        <time>2012-10-11T15:27:12Z</time>
      </trkpt>
      <trkpt lat="43.38859" lon="6.72868">
        <ele>18.2000008</ele>
        <time>2012-10-11T15:27:30Z</time>
      </trkpt>
      <trkpt lat="43.38809" lon="6.73004">
        <ele>12</ele>
        <time>2012-10-11T15:27:47Z</time>
      </trkpt>
      <trkpt lat="43.38802" lon="6.73014">
        <ele>9.6000004</ele>
        <time>2012-10-11T15:28:02Z</time>
      </trkpt>
      <trkpt lat="43.3881" lon="6.73041">
        <ele>7.4000001</ele>
        <time>2012-10-11T15:28:20Z</time>
      </trkpt>
      <trkpt lat="43.38827" lon="6.73058">
        <ele>7.4000001</ele>
        <time>2012-10-11T15:28:26Z</time>
      </trkpt>
      <trkpt lat="43.38844" lon="6.7302">
        <ele>7.4000001</ele>
        <time>2012-10-11T15:28:42Z</time>
      </trkpt>
      <trkpt lat="43.38901" lon="6.73065">
        <ele>7.4000001</ele>
        <time>2012-10-11T15:29:22Z</time>
      </trkpt>
      <trkpt lat="43.38926" lon="6.73057">
        <ele>7.4000001</ele>
        <time>2012-10-11T15:29:32Z</time>
      </trkpt>
      <trkpt lat="43.38926" lon="6.73096">
        <ele>7.4000001</ele>
        <time>2012-10-11T15:30:07Z</time>
      </trkpt>
      <trkpt lat="43.3897" lon="6.73173">
        <ele>7.4000001</ele>
        <time>2012-10-11T15:30:49Z</time>
      </trkpt>
      <trkpt lat="43.38984" lon="6.73165">
        <ele>7.4000001</ele>
        <time>2012-10-11T15:31:06Z</time>
      </trkpt>
      <trkpt lat="43.39009" lon="6.73202">
        <ele>7.4000001</ele>
        <time>2012-10-11T15:31:19Z</time>
      </trkpt>
      <trkpt lat="43.3905" lon="6.73183">
        <ele>9.6000004</ele>
        <time>2012-10-11T15:31:41Z</time>
      </trkpt>
      <trkpt lat="43.39086" lon="6.7319">
        <ele>9.6000004</ele>
        <time>2012-10-11T15:31:57Z</time>
      </trkpt>
      <trkpt lat="43.39113" lon="6.73164">
        <ele>7.4000001</ele>
        <time>2012-10-11T15:32:06Z</time>
      </trkpt>
      <trkpt lat="43.39124" lon="6.73061">
        <ele>7.4000001</ele>
        <time>2012-10-11T15:32:30Z</time>
      </trkpt>
      <trkpt lat="43.3914" lon="6.73027">
        <ele>7.4000001</ele>
        <time>2012-10-11T15:32:35Z</time>
      </trkpt>
      <trkpt lat="43.39158" lon="6.72986">
        <ele>5.5999999</ele>
        <time>2012-10-11T15:32:40Z</time>
      </trkpt>
      <trkpt lat="43.39202" lon="6.72923">
        <ele>5.1999998</ele>
        <time>2012-10-11T15:32:53Z</time>
      </trkpt>
      <trkpt lat="43.39219" lon="6.72917">
        <ele>5.1999998</ele>
        <time>2012-10-11T15:33:17Z</time>
      </trkpt>
      <trkpt lat="43.39274" lon="6.72803">
        <ele>5.1999998</ele>
        <time>2012-10-11T15:34:41Z</time>
      </trkpt>
      <trkpt lat="43.3931" lon="6.72765">
        <ele>5.1999998</ele>
        <time>2012-10-11T15:35:01Z</time>
      </trkpt>
      <trkpt lat="43.3993" lon="6.72972">
        <ele>5.1999998</ele>
        <time>2012-10-11T15:37:16Z</time>
      </trkpt>
      <trkpt lat="43.40259" lon="6.72983">
        <ele>5.1999998</ele>
        <time>2012-10-11T15:38:12Z</time>
      </trkpt>
      <trkpt lat="43.40417" lon="6.72905">
        <ele>5.1999998</ele>
        <time>2012-10-11T15:38:40Z</time>
      </trkpt>
      <trkpt lat="43.40904" lon="6.72429">
        <ele>5.1999998</ele>
        <time>2012-10-11T15:40:21Z</time>
      </trkpt>
      <trkpt lat="43.40962" lon="6.72421">
        <ele>5.1999998</ele>
        <time>2012-10-11T15:40:33Z</time>
      </trkpt>
      <trkpt lat="43.41057" lon="6.72439">
        <ele>5.1999998</ele>
        <time>2012-10-11T15:40:51Z</time>
      </trkpt>
      <trkpt lat="43.41157" lon="6.72506">
        <ele>7.1999998</ele>
        <time>2012-10-11T15:41:15Z</time>
      </trkpt>
      <trkpt lat="43.41169" lon="6.72512">
        <ele>7.1999998</ele>
        <time>2012-10-11T15:41:18Z</time>
      </trkpt>
      <trkpt lat="43.41195" lon="6.72488">
        <ele>7.1999998</ele>
        <time>2012-10-11T15:41:28Z</time>
      </trkpt>
      <trkpt lat="43.41203" lon="6.72473">
        <ele>5</ele>
        <time>2012-10-11T15:41:32Z</time>
      </trkpt>
      <trkpt lat="43.4134" lon="6.72454">
        <ele>5</ele>
        <time>2012-10-11T15:42:03Z</time>
      </trkpt>
      <trkpt lat="43.41367" lon="6.72473">
        <ele>5</ele>
        <time>2012-10-11T15:42:09Z</time>
      </trkpt>
      <trkpt lat="43.41404" lon="6.72524">
        <ele>5</ele>
        <time>2012-10-11T15:42:19Z</time>
      </trkpt>
      <trkpt lat="43.41446" lon="6.72617">
        <ele>5</ele>
        <time>2012-10-11T15:42:36Z</time>
      </trkpt>
      <trkpt lat="43.41536" lon="6.72661">
        <ele>5</ele>
        <time>2012-10-11T15:42:57Z</time>
      </trkpt>
      <trkpt lat="43.4152" lon="6.7269">
        <ele>7.1999998</ele>
        <time>2012-10-11T15:43:08Z</time>
      </trkpt>
      <trkpt lat="43.41568" lon="6.72709">
        <ele>7.1999998</ele>
        <time>2012-10-11T15:43:21Z</time>
      </trkpt>
      <trkpt lat="43.41585" lon="6.72695">
        <ele>7.1999998</ele>
        <time>2012-10-11T15:43:28Z</time>
      </trkpt>
      <trkpt lat="43.41525" lon="6.72797">
        <ele>5.1999998</ele>
        <time>2012-10-11T15:43:55Z</time>
      </trkpt>
      <trkpt lat="43.41562" lon="6.72801">
        <ele>5.1999998</ele>
        <time>2012-10-11T15:44:08Z</time>
      </trkpt>
      <trkpt lat="43.41563" lon="6.72825">
        <ele>5.1999998</ele>
        <time>2012-10-11T15:44:15Z</time>
      </trkpt>
      <trkpt lat="43.41605" lon="6.72809">
        <ele>5.1999998</ele>
        <time>2012-10-11T15:44:25Z</time>
      </trkpt>
      <trkpt lat="43.41671" lon="6.72821">
        <ele>5.1999998</ele>
        <time>2012-10-11T15:44:40Z</time>
      </trkpt>
      <trkpt lat="43.41683" lon="6.72842">
        <ele>5.1999998</ele>
        <time>2012-10-11T15:44:45Z</time>
      </trkpt>
      <trkpt lat="43.41577" lon="6.72909">
        <ele>5.1999998</ele>
        <time>2012-10-11T15:45:12Z</time>
      </trkpt>
      <trkpt lat="43.41586" lon="6.72924">
        <ele>4.5999999</ele>
        <time>2012-10-11T15:45:15Z</time>
      </trkpt>
      <trkpt lat="43.41576" lon="6.72946">
        <ele>3</ele>
        <time>2012-10-11T15:45:19Z</time>
      </trkpt>
      <trkpt lat="43.4154" lon="6.72976">
        <ele>3</ele>
        <time>2012-10-11T15:45:29Z</time>
      </trkpt>
      <trkpt lat="43.415" lon="6.72976">
        <ele>3</ele>
        <time>2012-10-11T15:45:38Z</time>
      </trkpt>
      <trkpt lat="43.41486" lon="6.73038">
        <ele>3</ele>
        <time>2012-10-11T15:45:49Z</time>
      </trkpt>
      <trkpt lat="43.41441" lon="6.73036">
        <ele>3</ele>
        <time>2012-10-11T15:46:01Z</time>
      </trkpt>
      <trkpt lat="43.41426" lon="6.73108">
        <ele>3</ele>
        <time>2012-10-11T15:46:13Z</time>
      </trkpt>
      <trkpt lat="43.4146" lon="6.73142">
        <ele>3</ele>
        <time>2012-10-11T15:46:23Z</time>
      </trkpt>
      <trkpt lat="43.41439" lon="6.73165">
        <ele>3</ele>
        <time>2012-10-11T15:46:32Z</time>
      </trkpt>
      <trkpt lat="43.41448" lon="6.73205">
        <ele>3</ele>
        <time>2012-10-11T15:46:39Z</time>
      </trkpt>
      <trkpt lat="43.414" lon="6.73236">
        <ele>3</ele>
        <time>2012-10-11T15:46:53Z</time>
      </trkpt>
      <trkpt lat="43.41391" lon="6.73346">
        <ele>3</ele>
        <time>2012-10-11T15:47:13Z</time>
      </trkpt>
      <trkpt lat="43.41426" lon="6.73456">
        <ele>3</ele>
        <time>2012-10-11T15:47:32Z</time>
      </trkpt>
      <trkpt lat="43.41596" lon="6.73502">
        <ele>3</ele>
        <time>2012-10-11T15:48:06Z</time>
      </trkpt>
      <trkpt lat="43.41596" lon="6.73576">
        <ele>3</ele>
        <time>2012-10-11T15:48:20Z</time>
      </trkpt>
      <trkpt lat="43.41646" lon="6.73671">
        <ele>3</ele>
        <time>2012-10-11T15:48:38Z</time>
      </trkpt>
      <trkpt lat="43.41549" lon="6.73814">
        <ele>3</ele>
        <time>2012-10-11T15:49:08Z</time>
      </trkpt>
      <trkpt lat="43.41605" lon="6.73857">
        <ele>3</ele>
        <time>2012-10-11T15:49:26Z</time>
      </trkpt>
      <trkpt lat="43.41611" lon="6.73885">
        <ele>3</ele>
        <time>2012-10-11T15:49:36Z</time>
      </trkpt>
      <trkpt lat="43.4163" lon="6.73887">
        <ele>3</ele>
        <time>2012-10-11T15:49:43Z</time>
      </trkpt>
      <trkpt lat="43.41629" lon="6.73866">
        <ele>3</ele>
        <time>2012-10-11T15:49:53Z</time>
      </trkpt>
      <trkpt lat="43.41637" lon="6.73874">
        <ele>3</ele>
        <time>2012-10-11T15:50:50Z</time>
      </trkpt>
    </trkseg>
  </trk>
</gpx>